<?xml version="1.0" encoding="UTF-8"?>
<gpx version="1.1" creator="GPSBabel - http://www.gpsbabel.org" xmlns="http://www.topografix.com/GPX/1/1" xmlns:wptx1="http://www.garmin.com/xmlschemas/WaypointExtension/v1" xmlns:gpxtrx="http://www.garmin.com/xmlschemas/GpxExtensions/v3" xmlns:gpxtpx="http://www.garmin.com/xmlschemas/TrackPointExtension/v1" xmlns:gpxx="http://www.garmin.com/xmlschemas/GpxExtensions/v3" xmlns:trp="http://www.garmin.com/xmlschemas/TripExtensions/v1" xmlns:adv="http://www.garmin.com/xmlschemas/AdventuresExtensions/v1" xmlns:prs="http://www.garmin.com/xmlschemas/PressureExtension/v1" xmlns:tmd="http://www.garmin.com/xmlschemas/TripMetaDataExtensions/v1" xmlns:vptm="http://www.garmin.com/xmlschemas/ViaPointTransportationModeExtensions/v1" xmlns:ctx="http://www.garmin.com/xmlschemas/CreationTimeExtension/v1" xmlns:gpxacc="http://www.garmin.com/xmlschemas/AccelerationExtension/v1" xmlns:gpxpx="http://www.garmin.com/xmlschemas/PowerExtension/v1" xmlns:vidx1="http://www.garmin.com/xmlschemas/VideoExtension/v1">
  <metadata>
    <time>2016-02-15T20:02:27.235Z</time>
    <bounds minlat="47.586589521" minlon="0.439300155" maxlat="47.603236400" maxlon="0.484156916"/>
  </metadata>
  <trk>
    <name>randogps37-55</name>
    <extensions>
      <gpxx:TrackExtension>
        <gpxx:DisplayColor>Red</gpxx:DisplayColor>
      </gpxx:TrackExtension>
    </extensions>
    <trkseg>
      <trkpt lat="47.602519663" lon="0.484111989">
        <ele>-96.960000</ele>
        <time>2015-01-27T08:25:28Z</time>
      </trkpt>
      <trkpt lat="47.602522932" lon="0.484111486">
        <ele>-91.670000</ele>
        <time>2015-01-27T08:25:29Z</time>
      </trkpt>
      <trkpt lat="47.602525782" lon="0.484115342">
        <ele>-86.380000</ele>
        <time>2015-01-27T08:25:30Z</time>
      </trkpt>
      <trkpt lat="47.602523183" lon="0.484117270">
        <ele>-81.090000</ele>
        <time>2015-01-27T08:25:31Z</time>
      </trkpt>
      <trkpt lat="47.602522513" lon="0.484117856">
        <ele>-76.290000</ele>
        <time>2015-01-27T08:25:32Z</time>
      </trkpt>
      <trkpt lat="47.602522429" lon="0.484118192">
        <ele>-71.480000</ele>
        <time>2015-01-27T08:25:33Z</time>
      </trkpt>
      <trkpt lat="47.602522513" lon="0.484120874">
        <ele>-62.350000</ele>
        <time>2015-01-27T08:25:34Z</time>
      </trkpt>
      <trkpt lat="47.602531733" lon="0.484129675">
        <ele>-58.020000</ele>
        <time>2015-01-27T08:25:36Z</time>
      </trkpt>
      <trkpt lat="47.602535589" lon="0.484135961">
        <ele>-53.700000</ele>
        <time>2015-01-27T08:25:37Z</time>
      </trkpt>
      <trkpt lat="47.602538690" lon="0.484140404">
        <ele>-49.370000</ele>
        <time>2015-01-27T08:25:38Z</time>
      </trkpt>
      <trkpt lat="47.602539696" lon="0.484142331">
        <ele>-46.010000</ele>
        <time>2015-01-27T08:25:39Z</time>
      </trkpt>
      <trkpt lat="47.602533242" lon="0.484147528">
        <ele>-42.160000</ele>
        <time>2015-01-27T08:25:40Z</time>
      </trkpt>
      <trkpt lat="47.602533074" lon="0.484150378">
        <ele>-38.320000</ele>
        <time>2015-01-27T08:25:41Z</time>
      </trkpt>
      <trkpt lat="47.602534080" lon="0.484146439">
        <ele>-34.950000</ele>
        <time>2015-01-27T08:25:42Z</time>
      </trkpt>
      <trkpt lat="47.602531649" lon="0.484143253">
        <ele>-31.590000</ele>
        <time>2015-01-27T08:25:43Z</time>
      </trkpt>
      <trkpt lat="47.602531146" lon="0.484139398">
        <ele>-28.700000</ele>
        <time>2015-01-27T08:25:44Z</time>
      </trkpt>
      <trkpt lat="47.602526955" lon="0.484138308">
        <ele>-25.340000</ele>
        <time>2015-01-27T08:25:45Z</time>
      </trkpt>
      <trkpt lat="47.602522848" lon="0.484144930">
        <ele>-19.570000</ele>
        <time>2015-01-27T08:25:47Z</time>
      </trkpt>
      <trkpt lat="47.602524692" lon="0.484149540">
        <ele>-16.690000</ele>
        <time>2015-01-27T08:25:48Z</time>
      </trkpt>
      <trkpt lat="47.602526033" lon="0.484148702">
        <ele>-10.920000</ele>
        <time>2015-01-27T08:25:50Z</time>
      </trkpt>
      <trkpt lat="47.602530308" lon="0.484141577">
        <ele>-6.110000</ele>
        <time>2015-01-27T08:25:52Z</time>
      </trkpt>
      <trkpt lat="47.602536930" lon="0.484141828">
        <ele>-1.300000</ele>
        <time>2015-01-27T08:25:54Z</time>
      </trkpt>
      <trkpt lat="47.602534248" lon="0.484140906">
        <ele>3.020000</ele>
        <time>2015-01-27T08:25:56Z</time>
      </trkpt>
      <trkpt lat="47.602535170" lon="0.484148785">
        <ele>7.350000</ele>
        <time>2015-01-27T08:25:58Z</time>
      </trkpt>
      <trkpt lat="47.602537936" lon="0.484154485">
        <ele>11.190000</ele>
        <time>2015-01-27T08:26:00Z</time>
      </trkpt>
      <trkpt lat="47.602539863" lon="0.484156916">
        <ele>15.040000</ele>
        <time>2015-01-27T08:26:02Z</time>
      </trkpt>
      <trkpt lat="47.602541288" lon="0.484156245">
        <ele>18.400000</ele>
        <time>2015-01-27T08:26:04Z</time>
      </trkpt>
      <trkpt lat="47.602533577" lon="0.484143253">
        <ele>21.770000</ele>
        <time>2015-01-27T08:26:06Z</time>
      </trkpt>
      <trkpt lat="47.602529470" lon="0.484134117">
        <ele>23.210000</ele>
        <time>2015-01-27T08:26:08Z</time>
      </trkpt>
      <trkpt lat="47.602525530" lon="0.484130261">
        <ele>26.570000</ele>
        <time>2015-01-27T08:26:09Z</time>
      </trkpt>
      <trkpt lat="47.602529805" lon="0.484131603">
        <ele>29.460000</ele>
        <time>2015-01-27T08:26:11Z</time>
      </trkpt>
      <trkpt lat="47.602535672" lon="0.484129088">
        <ele>32.820000</ele>
        <time>2015-01-27T08:26:14Z</time>
      </trkpt>
      <trkpt lat="47.602531146" lon="0.484133195">
        <ele>36.190000</ele>
        <time>2015-01-27T08:26:17Z</time>
      </trkpt>
      <trkpt lat="47.602527877" lon="0.484134536">
        <ele>40.030000</ele>
        <time>2015-01-27T08:26:21Z</time>
      </trkpt>
      <trkpt lat="47.602523100" lon="0.484123807">
        <ele>42.920000</ele>
        <time>2015-01-27T08:26:25Z</time>
      </trkpt>
      <trkpt lat="47.602529470" lon="0.484121796">
        <ele>46.280000</ele>
        <time>2015-01-27T08:26:29Z</time>
      </trkpt>
      <trkpt lat="47.602536930" lon="0.484114755">
        <ele>49.160000</ele>
        <time>2015-01-27T08:26:34Z</time>
      </trkpt>
      <trkpt lat="47.602540869" lon="0.484111235">
        <ele>50.130000</ele>
        <time>2015-01-27T08:26:36Z</time>
      </trkpt>
      <trkpt lat="47.602535086" lon="0.484121544">
        <ele>53.490000</ele>
        <time>2015-01-27T08:26:43Z</time>
      </trkpt>
      <trkpt lat="47.602521004" lon="0.484134788">
        <ele>54.450000</ele>
        <time>2015-01-27T08:26:45Z</time>
      </trkpt>
      <trkpt lat="47.602484711" lon="0.484124562">
        <ele>57.340000</ele>
        <time>2015-01-27T08:26:54Z</time>
      </trkpt>
      <trkpt lat="47.602478256" lon="0.484081311">
        <ele>60.700000</ele>
        <time>2015-01-27T08:27:04Z</time>
      </trkpt>
      <trkpt lat="47.602476496" lon="0.484035295">
        <ele>62.140000</ele>
        <time>2015-01-27T08:27:09Z</time>
      </trkpt>
      <trkpt lat="47.602510192" lon="0.483937059">
        <ele>64.550000</ele>
        <time>2015-01-27T08:27:19Z</time>
      </trkpt>
      <trkpt lat="47.602665592" lon="0.483930605">
        <ele>66.470000</ele>
        <time>2015-01-27T08:27:34Z</time>
      </trkpt>
      <trkpt lat="47.602742957" lon="0.483898753">
        <ele>65.990000</ele>
        <time>2015-01-27T08:27:47Z</time>
      </trkpt>
      <trkpt lat="47.602751758" lon="0.483872853">
        <ele>65.990000</ele>
        <time>2015-01-27T08:27:50Z</time>
      </trkpt>
      <trkpt lat="47.602824848" lon="0.483780233">
        <ele>65.990000</ele>
        <time>2015-01-27T08:28:06Z</time>
      </trkpt>
      <trkpt lat="47.602860471" lon="0.483753076">
        <ele>65.990000</ele>
        <time>2015-01-27T08:28:23Z</time>
      </trkpt>
      <trkpt lat="47.603057865" lon="0.483490303">
        <ele>66.470000</ele>
        <time>2015-01-27T08:28:37Z</time>
      </trkpt>
      <trkpt lat="47.603080664" lon="0.483320737">
        <ele>66.950000</ele>
        <time>2015-01-27T08:28:45Z</time>
      </trkpt>
      <trkpt lat="47.603143109" lon="0.483205654">
        <ele>66.950000</ele>
        <time>2015-01-27T08:28:52Z</time>
      </trkpt>
      <trkpt lat="47.603202621" lon="0.482903402">
        <ele>67.430000</ele>
        <time>2015-01-27T08:29:07Z</time>
      </trkpt>
      <trkpt lat="47.603215110" lon="0.482681282">
        <ele>67.910000</ele>
        <time>2015-01-27T08:29:18Z</time>
      </trkpt>
      <trkpt lat="47.603221983" lon="0.482561840">
        <ele>67.910000</ele>
        <time>2015-01-27T08:29:24Z</time>
      </trkpt>
      <trkpt lat="47.603236400" lon="0.482338378">
        <ele>68.390000</ele>
        <time>2015-01-27T08:29:35Z</time>
      </trkpt>
      <trkpt lat="47.603135398" lon="0.482063703">
        <ele>68.390000</ele>
        <time>2015-01-27T08:29:51Z</time>
      </trkpt>
      <trkpt lat="47.603095835" lon="0.481840828">
        <ele>67.910000</ele>
        <time>2015-01-27T08:30:04Z</time>
      </trkpt>
      <trkpt lat="47.603052417" lon="0.481511503">
        <ele>67.910000</ele>
        <time>2015-01-27T08:30:21Z</time>
      </trkpt>
      <trkpt lat="47.603009418" lon="0.481330287">
        <ele>67.910000</ele>
        <time>2015-01-27T08:30:39Z</time>
      </trkpt>
      <trkpt lat="47.602964155" lon="0.481386781">
        <ele>68.870000</ele>
        <time>2015-01-27T08:30:52Z</time>
      </trkpt>
      <trkpt lat="47.603038419" lon="0.481180754">
        <ele>68.390000</ele>
        <time>2015-01-27T08:31:02Z</time>
      </trkpt>
      <trkpt lat="47.602976561" lon="0.480746152">
        <ele>67.430000</ele>
        <time>2015-01-27T08:31:20Z</time>
      </trkpt>
      <trkpt lat="47.602952085" lon="0.480382210">
        <ele>67.430000</ele>
        <time>2015-01-27T08:31:36Z</time>
      </trkpt>
      <trkpt lat="47.602879666" lon="0.479969485">
        <ele>67.430000</ele>
        <time>2015-01-27T08:31:54Z</time>
      </trkpt>
      <trkpt lat="47.602824932" lon="0.479580816">
        <ele>67.430000</ele>
        <time>2015-01-27T08:32:14Z</time>
      </trkpt>
      <trkpt lat="47.602820657" lon="0.479547959">
        <ele>67.430000</ele>
        <time>2015-01-27T08:32:16Z</time>
      </trkpt>
      <trkpt lat="47.602724768" lon="0.479246462">
        <ele>67.910000</ele>
        <time>2015-01-27T08:32:33Z</time>
      </trkpt>
      <trkpt lat="47.602708424" lon="0.479172952">
        <ele>67.910000</ele>
        <time>2015-01-27T08:32:43Z</time>
      </trkpt>
      <trkpt lat="47.602633657" lon="0.478920406">
        <ele>67.910000</ele>
        <time>2015-01-27T08:32:56Z</time>
      </trkpt>
      <trkpt lat="47.602648241" lon="0.478531737">
        <ele>67.910000</ele>
        <time>2015-01-27T08:33:13Z</time>
      </trkpt>
      <trkpt lat="47.602770198" lon="0.478241555">
        <ele>67.430000</ele>
        <time>2015-01-27T08:33:29Z</time>
      </trkpt>
      <trkpt lat="47.602842199" lon="0.478071822">
        <ele>66.950000</ele>
        <time>2015-01-27T08:33:39Z</time>
      </trkpt>
      <trkpt lat="47.602874553" lon="0.478061261">
        <ele>66.950000</ele>
        <time>2015-01-27T08:33:42Z</time>
      </trkpt>
      <trkpt lat="47.602921156" lon="0.478055310">
        <ele>67.430000</ele>
        <time>2015-01-27T08:33:49Z</time>
      </trkpt>
      <trkpt lat="47.602987206" lon="0.477773007">
        <ele>67.430000</ele>
        <time>2015-01-27T08:34:05Z</time>
      </trkpt>
      <trkpt lat="47.602979997" lon="0.477467822">
        <ele>66.950000</ele>
        <time>2015-01-27T08:34:19Z</time>
      </trkpt>
      <trkpt lat="47.603032216" lon="0.477104215">
        <ele>66.950000</ele>
        <time>2015-01-27T08:34:36Z</time>
      </trkpt>
      <trkpt lat="47.603094159" lon="0.476743039">
        <ele>66.950000</ele>
        <time>2015-01-27T08:34:54Z</time>
      </trkpt>
      <trkpt lat="47.603045292" lon="0.476614963">
        <ele>67.430000</ele>
        <time>2015-01-27T08:35:07Z</time>
      </trkpt>
      <trkpt lat="47.603031797" lon="0.476549584">
        <ele>67.430000</ele>
        <time>2015-01-27T08:35:11Z</time>
      </trkpt>
      <trkpt lat="47.603008244" lon="0.476478590">
        <ele>67.910000</ele>
        <time>2015-01-27T08:35:15Z</time>
      </trkpt>
      <trkpt lat="47.602967173" lon="0.476286476">
        <ele>67.910000</ele>
        <time>2015-01-27T08:35:25Z</time>
      </trkpt>
      <trkpt lat="47.602839600" lon="0.475887246">
        <ele>69.350000</ele>
        <time>2015-01-27T08:35:45Z</time>
      </trkpt>
      <trkpt lat="47.602766007" lon="0.475515677">
        <ele>71.270000</ele>
        <time>2015-01-27T08:36:03Z</time>
      </trkpt>
      <trkpt lat="47.602740610" lon="0.475384668">
        <ele>71.760000</ele>
        <time>2015-01-27T08:36:12Z</time>
      </trkpt>
      <trkpt lat="47.602734743" lon="0.475231111">
        <ele>72.240000</ele>
        <time>2015-01-27T08:36:21Z</time>
      </trkpt>
      <trkpt lat="47.602737006" lon="0.474912096">
        <ele>73.200000</ele>
        <time>2015-01-27T08:36:39Z</time>
      </trkpt>
      <trkpt lat="47.602731390" lon="0.474882424">
        <ele>73.680000</ele>
        <time>2015-01-27T08:36:41Z</time>
      </trkpt>
      <trkpt lat="47.602741113" lon="0.474847974">
        <ele>74.160000</ele>
        <time>2015-01-27T08:36:51Z</time>
      </trkpt>
      <trkpt lat="47.602647906" lon="0.474728197">
        <ele>75.120000</ele>
        <time>2015-01-27T08:37:04Z</time>
      </trkpt>
      <trkpt lat="47.602539193" lon="0.474437932">
        <ele>77.520000</ele>
        <time>2015-01-27T08:37:19Z</time>
      </trkpt>
      <trkpt lat="47.602447663" lon="0.474168202">
        <ele>79.930000</ele>
        <time>2015-01-27T08:37:38Z</time>
      </trkpt>
      <trkpt lat="47.602445148" lon="0.474149426">
        <ele>79.930000</ele>
        <time>2015-01-27T08:37:40Z</time>
      </trkpt>
      <trkpt lat="47.602417404" lon="0.473999893">
        <ele>80.890000</ele>
        <time>2015-01-27T08:37:53Z</time>
      </trkpt>
      <trkpt lat="47.602408184" lon="0.473961169">
        <ele>81.370000</ele>
        <time>2015-01-27T08:38:01Z</time>
      </trkpt>
      <trkpt lat="47.602337440" lon="0.473612482">
        <ele>84.250000</ele>
        <time>2015-01-27T08:38:21Z</time>
      </trkpt>
      <trkpt lat="47.602335764" lon="0.473505026">
        <ele>85.210000</ele>
        <time>2015-01-27T08:38:26Z</time>
      </trkpt>
      <trkpt lat="47.602335764" lon="0.473398408">
        <ele>86.660000</ele>
        <time>2015-01-27T08:38:31Z</time>
      </trkpt>
      <trkpt lat="47.602333082" lon="0.473363204">
        <ele>87.140000</ele>
        <time>2015-01-27T08:38:33Z</time>
      </trkpt>
      <trkpt lat="47.602317575" lon="0.473284582">
        <ele>88.100000</ele>
        <time>2015-01-27T08:38:38Z</time>
      </trkpt>
      <trkpt lat="47.602316905" lon="0.473165978">
        <ele>89.060000</ele>
        <time>2015-01-27T08:38:45Z</time>
      </trkpt>
      <trkpt lat="47.602306595" lon="0.473140581">
        <ele>89.060000</ele>
        <time>2015-01-27T08:38:47Z</time>
      </trkpt>
      <trkpt lat="47.602248257" lon="0.472806646">
        <ele>91.940000</ele>
        <time>2015-01-27T08:39:05Z</time>
      </trkpt>
      <trkpt lat="47.602207018" lon="0.472568180">
        <ele>95.310000</ele>
        <time>2015-01-27T08:39:21Z</time>
      </trkpt>
      <trkpt lat="47.602134766" lon="0.472405152">
        <ele>97.230000</ele>
        <time>2015-01-27T08:39:36Z</time>
      </trkpt>
      <trkpt lat="47.602008870" lon="0.472221337">
        <ele>99.630000</ele>
        <time>2015-01-27T08:39:54Z</time>
      </trkpt>
      <trkpt lat="47.601957489" lon="0.471978178">
        <ele>101.080000</ele>
        <time>2015-01-27T08:40:09Z</time>
      </trkpt>
      <trkpt lat="47.601929912" lon="0.471760249">
        <ele>102.520000</ele>
        <time>2015-01-27T08:40:25Z</time>
      </trkpt>
      <trkpt lat="47.601918513" lon="0.471661342">
        <ele>103.000000</ele>
        <time>2015-01-27T08:40:31Z</time>
      </trkpt>
      <trkpt lat="47.601861265" lon="0.471340399">
        <ele>104.440000</ele>
        <time>2015-01-27T08:40:47Z</time>
      </trkpt>
      <trkpt lat="47.601816086" lon="0.471086679">
        <ele>105.400000</ele>
        <time>2015-01-27T08:41:01Z</time>
      </trkpt>
      <trkpt lat="47.601758754" lon="0.470814435">
        <ele>105.880000</ele>
        <time>2015-01-27T08:41:16Z</time>
      </trkpt>
      <trkpt lat="47.601725478" lon="0.470712762">
        <ele>106.360000</ele>
        <time>2015-01-27T08:41:27Z</time>
      </trkpt>
      <trkpt lat="47.601678707" lon="0.470463820">
        <ele>106.360000</ele>
        <time>2015-01-27T08:41:41Z</time>
      </trkpt>
      <trkpt lat="47.601581477" lon="0.470131310">
        <ele>107.320000</ele>
        <time>2015-01-27T08:41:58Z</time>
      </trkpt>
      <trkpt lat="47.601448791" lon="0.469889576">
        <ele>107.810000</ele>
        <time>2015-01-27T08:42:15Z</time>
      </trkpt>
      <trkpt lat="47.601346448" lon="0.469859065">
        <ele>108.290000</ele>
        <time>2015-01-27T08:42:31Z</time>
      </trkpt>
      <trkpt lat="47.601326918" lon="0.469860323">
        <ele>108.290000</ele>
        <time>2015-01-27T08:42:46Z</time>
      </trkpt>
      <trkpt lat="47.601270592" lon="0.469865520">
        <ele>108.290000</ele>
        <time>2015-01-27T08:42:53Z</time>
      </trkpt>
      <trkpt lat="47.601119885" lon="0.469876332">
        <ele>108.770000</ele>
        <time>2015-01-27T08:43:11Z</time>
      </trkpt>
      <trkpt lat="47.601095159" lon="0.469886977">
        <ele>108.770000</ele>
        <time>2015-01-27T08:43:24Z</time>
      </trkpt>
      <trkpt lat="47.600913355" lon="0.469888821">
        <ele>109.730000</ele>
        <time>2015-01-27T08:43:40Z</time>
      </trkpt>
      <trkpt lat="47.600691989" lon="0.469951099">
        <ele>109.730000</ele>
        <time>2015-01-27T08:44:00Z</time>
      </trkpt>
      <trkpt lat="47.600525944" lon="0.469978675">
        <ele>111.170000</ele>
        <time>2015-01-27T08:44:17Z</time>
      </trkpt>
      <trkpt lat="47.600447573" lon="0.469979765">
        <ele>110.210000</ele>
        <time>2015-01-27T08:44:27Z</time>
      </trkpt>
      <trkpt lat="47.600220256" lon="0.469947914">
        <ele>109.730000</ele>
        <time>2015-01-27T08:44:47Z</time>
      </trkpt>
      <trkpt lat="47.600013558" lon="0.469881697">
        <ele>109.730000</ele>
        <time>2015-01-27T08:45:07Z</time>
      </trkpt>
      <trkpt lat="47.599847177" lon="0.469810618">
        <ele>109.730000</ele>
        <time>2015-01-27T08:45:23Z</time>
      </trkpt>
      <trkpt lat="47.599664535" lon="0.469727134">
        <ele>110.210000</ele>
        <time>2015-01-27T08:45:40Z</time>
      </trkpt>
      <trkpt lat="47.599518606" lon="0.469644405">
        <ele>110.690000</ele>
        <time>2015-01-27T08:45:54Z</time>
      </trkpt>
      <trkpt lat="47.599330768" lon="0.469494285">
        <ele>111.170000</ele>
        <time>2015-01-27T08:46:12Z</time>
      </trkpt>
      <trkpt lat="47.599138487" lon="0.469347937">
        <ele>111.170000</ele>
        <time>2015-01-27T08:46:30Z</time>
      </trkpt>
      <trkpt lat="47.598981746" lon="0.469234278">
        <ele>112.130000</ele>
        <time>2015-01-27T08:46:46Z</time>
      </trkpt>
      <trkpt lat="47.598790471" lon="0.469122548">
        <ele>112.130000</ele>
        <time>2015-01-27T08:47:04Z</time>
      </trkpt>
      <trkpt lat="47.598608499" lon="0.469068149">
        <ele>112.610000</ele>
        <time>2015-01-27T08:47:22Z</time>
      </trkpt>
      <trkpt lat="47.598417643" lon="0.469028000">
        <ele>112.610000</ele>
        <time>2015-01-27T08:47:39Z</time>
      </trkpt>
      <trkpt lat="47.598378751" lon="0.469030682">
        <ele>112.610000</ele>
        <time>2015-01-27T08:47:42Z</time>
      </trkpt>
      <trkpt lat="47.598157218" lon="0.469082985">
        <ele>113.090000</ele>
        <time>2015-01-27T08:48:00Z</time>
      </trkpt>
      <trkpt lat="47.597941300" lon="0.469172001">
        <ele>114.050000</ele>
        <time>2015-01-27T08:48:19Z</time>
      </trkpt>
      <trkpt lat="47.597736949" lon="0.469255149">
        <ele>113.090000</ele>
        <time>2015-01-27T08:48:37Z</time>
      </trkpt>
      <trkpt lat="47.597536538" lon="0.469344165">
        <ele>113.090000</ele>
        <time>2015-01-27T08:48:55Z</time>
      </trkpt>
      <trkpt lat="47.597359596" lon="0.469415747">
        <ele>113.090000</ele>
        <time>2015-01-27T08:49:11Z</time>
      </trkpt>
      <trkpt lat="47.597220205" lon="0.469457153">
        <ele>113.570000</ele>
        <time>2015-01-27T08:49:24Z</time>
      </trkpt>
      <trkpt lat="47.597034127" lon="0.469544660">
        <ele>113.570000</ele>
        <time>2015-01-27T08:49:40Z</time>
      </trkpt>
      <trkpt lat="47.596823154" lon="0.469621522">
        <ele>114.050000</ele>
        <time>2015-01-27T08:49:58Z</time>
      </trkpt>
      <trkpt lat="47.596637243" lon="0.469691427">
        <ele>114.050000</ele>
        <time>2015-01-27T08:50:14Z</time>
      </trkpt>
      <trkpt lat="47.596447645" lon="0.469766110">
        <ele>114.530000</ele>
        <time>2015-01-27T08:50:31Z</time>
      </trkpt>
      <trkpt lat="47.596285539" lon="0.469852863">
        <ele>114.530000</ele>
        <time>2015-01-27T08:50:46Z</time>
      </trkpt>
      <trkpt lat="47.596101640" lon="0.469915560">
        <ele>115.010000</ele>
        <time>2015-01-27T08:51:01Z</time>
      </trkpt>
      <trkpt lat="47.595924195" lon="0.469966773">
        <ele>115.010000</ele>
        <time>2015-01-27T08:51:15Z</time>
      </trkpt>
      <trkpt lat="47.595737027" lon="0.470049754">
        <ele>115.010000</ele>
        <time>2015-01-27T08:51:31Z</time>
      </trkpt>
      <trkpt lat="47.595529407" lon="0.470124520">
        <ele>115.500000</ele>
        <time>2015-01-27T08:51:48Z</time>
      </trkpt>
      <trkpt lat="47.595330253" lon="0.470201885">
        <ele>115.500000</ele>
        <time>2015-01-27T08:52:05Z</time>
      </trkpt>
      <trkpt lat="47.595127411" lon="0.470277322">
        <ele>115.500000</ele>
        <time>2015-01-27T08:52:23Z</time>
      </trkpt>
      <trkpt lat="47.594916942" lon="0.470350832">
        <ele>115.500000</ele>
        <time>2015-01-27T08:52:40Z</time>
      </trkpt>
      <trkpt lat="47.594897579" lon="0.470361896">
        <ele>115.500000</ele>
        <time>2015-01-27T08:52:42Z</time>
      </trkpt>
      <trkpt lat="47.594790794" lon="0.470410511">
        <ele>115.500000</ele>
        <time>2015-01-27T08:52:55Z</time>
      </trkpt>
      <trkpt lat="47.594772605" lon="0.470480919">
        <ele>115.980000</ele>
        <time>2015-01-27T08:53:07Z</time>
      </trkpt>
      <trkpt lat="47.594746370" lon="0.470485529">
        <ele>115.500000</ele>
        <time>2015-01-27T08:53:21Z</time>
      </trkpt>
      <trkpt lat="47.594723823" lon="0.470434064">
        <ele>115.500000</ele>
        <time>2015-01-27T08:53:42Z</time>
      </trkpt>
      <trkpt lat="47.594716195" lon="0.470410343">
        <ele>115.980000</ele>
        <time>2015-01-27T08:53:45Z</time>
      </trkpt>
      <trkpt lat="47.594609661" lon="0.470166514">
        <ele>115.500000</ele>
        <time>2015-01-27T08:54:03Z</time>
      </trkpt>
      <trkpt lat="47.594605386" lon="0.470100800">
        <ele>115.500000</ele>
        <time>2015-01-27T08:54:07Z</time>
      </trkpt>
      <trkpt lat="47.594576217" lon="0.469996780">
        <ele>115.980000</ele>
        <time>2015-01-27T08:54:14Z</time>
      </trkpt>
      <trkpt lat="47.594520058" lon="0.469711125">
        <ele>115.980000</ele>
        <time>2015-01-27T08:54:31Z</time>
      </trkpt>
      <trkpt lat="47.594485776" lon="0.469528064">
        <ele>115.980000</ele>
        <time>2015-01-27T08:54:46Z</time>
      </trkpt>
      <trkpt lat="47.594484268" lon="0.469519263">
        <ele>115.980000</ele>
        <time>2015-01-27T08:54:58Z</time>
      </trkpt>
      <trkpt lat="47.594427606" lon="0.469376855">
        <ele>115.980000</ele>
        <time>2015-01-27T08:55:06Z</time>
      </trkpt>
      <trkpt lat="47.594351750" lon="0.469061695">
        <ele>115.980000</ele>
        <time>2015-01-27T08:55:21Z</time>
      </trkpt>
      <trkpt lat="47.594289808" lon="0.468803952">
        <ele>115.980000</ele>
        <time>2015-01-27T08:55:34Z</time>
      </trkpt>
      <trkpt lat="47.594280588" lon="0.468727760">
        <ele>115.980000</ele>
        <time>2015-01-27T08:55:38Z</time>
      </trkpt>
      <trkpt lat="47.594195176" lon="0.468357615">
        <ele>115.010000</ele>
        <time>2015-01-27T08:55:56Z</time>
      </trkpt>
      <trkpt lat="47.594079841" lon="0.467861826">
        <ele>114.050000</ele>
        <time>2015-01-27T08:56:19Z</time>
      </trkpt>
      <trkpt lat="47.593987556" lon="0.467429152">
        <ele>113.570000</ele>
        <time>2015-01-27T08:56:41Z</time>
      </trkpt>
      <trkpt lat="47.593906252" lon="0.467021540">
        <ele>111.650000</ele>
        <time>2015-01-27T08:57:01Z</time>
      </trkpt>
      <trkpt lat="47.593874149" lon="0.466918945">
        <ele>111.170000</ele>
        <time>2015-01-27T08:57:16Z</time>
      </trkpt>
      <trkpt lat="47.593828216" lon="0.466707805">
        <ele>110.690000</ele>
        <time>2015-01-27T08:57:34Z</time>
      </trkpt>
      <trkpt lat="47.593810447" lon="0.466637481">
        <ele>110.690000</ele>
        <time>2015-01-27T08:57:38Z</time>
      </trkpt>
      <trkpt lat="47.593773147" lon="0.466477806">
        <ele>109.730000</ele>
        <time>2015-01-27T08:57:47Z</time>
      </trkpt>
      <trkpt lat="47.593753617" lon="0.466399016">
        <ele>109.730000</ele>
        <time>2015-01-27T08:57:52Z</time>
      </trkpt>
      <trkpt lat="47.593649430" lon="0.465951841">
        <ele>107.810000</ele>
        <time>2015-01-27T08:58:13Z</time>
      </trkpt>
      <trkpt lat="47.593557397" lon="0.465496285">
        <ele>105.880000</ele>
        <time>2015-01-27T08:58:33Z</time>
      </trkpt>
      <trkpt lat="47.593543986" lon="0.465375418">
        <ele>105.400000</ele>
        <time>2015-01-27T08:58:45Z</time>
      </trkpt>
      <trkpt lat="47.593613388" lon="0.465270644">
        <ele>103.480000</ele>
        <time>2015-01-27T08:58:58Z</time>
      </trkpt>
      <trkpt lat="47.593668038" lon="0.465271482">
        <ele>103.000000</ele>
        <time>2015-01-27T08:59:11Z</time>
      </trkpt>
      <trkpt lat="47.593654376" lon="0.465274667">
        <ele>103.000000</ele>
        <time>2015-01-27T08:59:13Z</time>
      </trkpt>
      <trkpt lat="47.593564857" lon="0.465268549">
        <ele>103.480000</ele>
        <time>2015-01-27T08:59:21Z</time>
      </trkpt>
      <trkpt lat="47.593514649" lon="0.465266285">
        <ele>103.960000</ele>
        <time>2015-01-27T08:59:25Z</time>
      </trkpt>
      <trkpt lat="47.593436781" lon="0.465085404">
        <ele>103.960000</ele>
        <time>2015-01-27T08:59:34Z</time>
      </trkpt>
      <trkpt lat="47.593302839" lon="0.464674439">
        <ele>101.560000</ele>
        <time>2015-01-27T08:59:54Z</time>
      </trkpt>
      <trkpt lat="47.593106367" lon="0.464315107">
        <ele>99.150000</ele>
        <time>2015-01-27T09:00:13Z</time>
      </trkpt>
      <trkpt lat="47.592852395" lon="0.464029284">
        <ele>97.710000</ele>
        <time>2015-01-27T09:00:32Z</time>
      </trkpt>
      <trkpt lat="47.592596244" lon="0.463874638">
        <ele>95.790000</ele>
        <time>2015-01-27T09:00:52Z</time>
      </trkpt>
      <trkpt lat="47.592523741" lon="0.463843038">
        <ele>94.830000</ele>
        <time>2015-01-27T09:00:57Z</time>
      </trkpt>
      <trkpt lat="47.592348224" lon="0.463797105">
        <ele>93.870000</ele>
        <time>2015-01-27T09:01:12Z</time>
      </trkpt>
      <trkpt lat="47.592178322" lon="0.463707922">
        <ele>92.900000</ele>
        <time>2015-01-27T09:01:26Z</time>
      </trkpt>
      <trkpt lat="47.592023006" lon="0.463658553">
        <ele>91.460000</ele>
        <time>2015-01-27T09:01:36Z</time>
      </trkpt>
      <trkpt lat="47.591780769" lon="0.463589234">
        <ele>90.020000</ele>
        <time>2015-01-27T09:01:53Z</time>
      </trkpt>
      <trkpt lat="47.591585051" lon="0.463529387">
        <ele>89.060000</ele>
        <time>2015-01-27T09:02:08Z</time>
      </trkpt>
      <trkpt lat="47.591394950" lon="0.463494686">
        <ele>88.100000</ele>
        <time>2015-01-27T09:02:22Z</time>
      </trkpt>
      <trkpt lat="47.591338623" lon="0.463483203">
        <ele>87.620000</ele>
        <time>2015-01-27T09:02:26Z</time>
      </trkpt>
      <trkpt lat="47.591116838" lon="0.463428218">
        <ele>87.140000</ele>
        <time>2015-01-27T09:02:41Z</time>
      </trkpt>
      <trkpt lat="47.590881474" lon="0.463451939">
        <ele>86.660000</ele>
        <time>2015-01-27T09:02:59Z</time>
      </trkpt>
      <trkpt lat="47.590861861" lon="0.463452023">
        <ele>86.660000</ele>
        <time>2015-01-27T09:03:04Z</time>
      </trkpt>
      <trkpt lat="47.590633538" lon="0.463425955">
        <ele>86.180000</ele>
        <time>2015-01-27T09:03:19Z</time>
      </trkpt>
      <trkpt lat="47.590532787" lon="0.463450514">
        <ele>85.690000</ele>
        <time>2015-01-27T09:03:26Z</time>
      </trkpt>
      <trkpt lat="47.590401107" lon="0.463465098">
        <ele>85.210000</ele>
        <time>2015-01-27T09:03:38Z</time>
      </trkpt>
      <trkpt lat="47.590186615" lon="0.463439701">
        <ele>84.730000</ele>
        <time>2015-01-27T09:03:52Z</time>
      </trkpt>
      <trkpt lat="47.589890733" lon="0.463428972">
        <ele>84.250000</ele>
        <time>2015-01-27T09:04:10Z</time>
      </trkpt>
      <trkpt lat="47.589627039" lon="0.463391170">
        <ele>83.770000</ele>
        <time>2015-01-27T09:04:28Z</time>
      </trkpt>
      <trkpt lat="47.589602815" lon="0.463376166">
        <ele>84.250000</ele>
        <time>2015-01-27T09:04:30Z</time>
      </trkpt>
      <trkpt lat="47.589458562" lon="0.463246414">
        <ele>83.770000</ele>
        <time>2015-01-27T09:04:44Z</time>
      </trkpt>
      <trkpt lat="47.589393938" lon="0.463161338">
        <ele>83.770000</ele>
        <time>2015-01-27T09:04:55Z</time>
      </trkpt>
      <trkpt lat="47.589281118" lon="0.462914910">
        <ele>83.290000</ele>
        <time>2015-01-27T09:05:08Z</time>
      </trkpt>
      <trkpt lat="47.589119850" lon="0.462633530">
        <ele>83.290000</ele>
        <time>2015-01-27T09:05:24Z</time>
      </trkpt>
      <trkpt lat="47.588920696" lon="0.462456085">
        <ele>83.290000</ele>
        <time>2015-01-27T09:05:38Z</time>
      </trkpt>
      <trkpt lat="47.588806869" lon="0.462419624">
        <ele>83.290000</ele>
        <time>2015-01-27T09:05:53Z</time>
      </trkpt>
      <trkpt lat="47.588760434" lon="0.462387353">
        <ele>83.290000</ele>
        <time>2015-01-27T09:06:04Z</time>
      </trkpt>
      <trkpt lat="47.588700755" lon="0.462338571">
        <ele>82.810000</ele>
        <time>2015-01-27T09:06:19Z</time>
      </trkpt>
      <trkpt lat="47.588687176" lon="0.462322477">
        <ele>83.290000</ele>
        <time>2015-01-27T09:06:21Z</time>
      </trkpt>
      <trkpt lat="47.588637639" lon="0.462284507">
        <ele>83.290000</ele>
        <time>2015-01-27T09:06:27Z</time>
      </trkpt>
      <trkpt lat="47.588594053" lon="0.462231869">
        <ele>82.810000</ele>
        <time>2015-01-27T09:06:33Z</time>
      </trkpt>
      <trkpt lat="47.588532362" lon="0.462183002">
        <ele>82.810000</ele>
        <time>2015-01-27T09:06:40Z</time>
      </trkpt>
      <trkpt lat="47.588418871" lon="0.462083928">
        <ele>83.290000</ele>
        <time>2015-01-27T09:06:49Z</time>
      </trkpt>
      <trkpt lat="47.588214856" lon="0.461859209">
        <ele>83.290000</ele>
        <time>2015-01-27T09:07:07Z</time>
      </trkpt>
      <trkpt lat="47.588008326" lon="0.461612614">
        <ele>83.290000</ele>
        <time>2015-01-27T09:07:26Z</time>
      </trkpt>
      <trkpt lat="47.587869605" lon="0.461372891">
        <ele>83.770000</ele>
        <time>2015-01-27T09:07:41Z</time>
      </trkpt>
      <trkpt lat="47.587796682" lon="0.461244648">
        <ele>83.770000</ele>
        <time>2015-01-27T09:07:49Z</time>
      </trkpt>
      <trkpt lat="47.587649580" lon="0.461033341">
        <ele>84.250000</ele>
        <time>2015-01-27T09:08:04Z</time>
      </trkpt>
      <trkpt lat="47.587579172" lon="0.460829660">
        <ele>84.250000</ele>
        <time>2015-01-27T09:08:15Z</time>
      </trkpt>
      <trkpt lat="47.587413294" lon="0.460549286">
        <ele>84.730000</ele>
        <time>2015-01-27T09:08:34Z</time>
      </trkpt>
      <trkpt lat="47.587281112" lon="0.460327836">
        <ele>85.210000</ele>
        <time>2015-01-27T09:08:48Z</time>
      </trkpt>
      <trkpt lat="47.587186061" lon="0.460212836">
        <ele>85.210000</ele>
        <time>2015-01-27T09:09:00Z</time>
      </trkpt>
      <trkpt lat="47.587108696" lon="0.460040672">
        <ele>85.210000</ele>
        <time>2015-01-27T09:09:12Z</time>
      </trkpt>
      <trkpt lat="47.586982800" lon="0.459905723">
        <ele>86.180000</ele>
        <time>2015-01-27T09:09:25Z</time>
      </trkpt>
      <trkpt lat="47.586970897" lon="0.459895497">
        <ele>86.180000</ele>
        <time>2015-01-27T09:09:51Z</time>
      </trkpt>
      <trkpt lat="47.586912476" lon="0.459775301">
        <ele>86.180000</ele>
        <time>2015-01-27T09:09:59Z</time>
      </trkpt>
      <trkpt lat="47.586863106" lon="0.459725428">
        <ele>86.180000</ele>
        <time>2015-01-27T09:10:08Z</time>
      </trkpt>
      <trkpt lat="47.586784484" lon="0.459551252">
        <ele>86.660000</ele>
        <time>2015-01-27T09:10:18Z</time>
      </trkpt>
      <trkpt lat="47.586638471" lon="0.459291162">
        <ele>87.140000</ele>
        <time>2015-01-27T09:10:34Z</time>
      </trkpt>
      <trkpt lat="47.586589521" lon="0.459213713">
        <ele>87.620000</ele>
        <time>2015-01-27T09:10:39Z</time>
      </trkpt>
      <trkpt lat="47.586662108" lon="0.458992934">
        <ele>88.100000</ele>
        <time>2015-01-27T09:10:52Z</time>
      </trkpt>
      <trkpt lat="47.586679962" lon="0.458961921">
        <ele>88.100000</ele>
        <time>2015-01-27T09:10:54Z</time>
      </trkpt>
      <trkpt lat="47.586726900" lon="0.458859913">
        <ele>88.580000</ele>
        <time>2015-01-27T09:11:08Z</time>
      </trkpt>
      <trkpt lat="47.586735282" lon="0.458849352">
        <ele>89.060000</ele>
        <time>2015-01-27T09:11:09Z</time>
      </trkpt>
      <trkpt lat="47.586891018" lon="0.458562942">
        <ele>90.500000</ele>
        <time>2015-01-27T09:11:28Z</time>
      </trkpt>
      <trkpt lat="47.587003084" lon="0.458391700">
        <ele>91.460000</ele>
        <time>2015-01-27T09:11:44Z</time>
      </trkpt>
      <trkpt lat="47.587029403" lon="0.458350210">
        <ele>91.460000</ele>
        <time>2015-01-27T09:11:48Z</time>
      </trkpt>
      <trkpt lat="47.587087993" lon="0.458175112">
        <ele>92.900000</ele>
        <time>2015-01-27T09:12:04Z</time>
      </trkpt>
      <trkpt lat="47.587118335" lon="0.458012251">
        <ele>93.870000</ele>
        <time>2015-01-27T09:12:21Z</time>
      </trkpt>
      <trkpt lat="47.587167537" lon="0.457769679">
        <ele>95.790000</ele>
        <time>2015-01-27T09:12:35Z</time>
      </trkpt>
      <trkpt lat="47.587222606" lon="0.457552671">
        <ele>97.710000</ele>
        <time>2015-01-27T09:12:52Z</time>
      </trkpt>
      <trkpt lat="47.587302569" lon="0.457408838">
        <ele>99.150000</ele>
        <time>2015-01-27T09:13:07Z</time>
      </trkpt>
      <trkpt lat="47.587353280" lon="0.457336670">
        <ele>100.110000</ele>
        <time>2015-01-27T09:13:15Z</time>
      </trkpt>
      <trkpt lat="47.587488983" lon="0.457196189">
        <ele>101.560000</ele>
        <time>2015-01-27T09:13:31Z</time>
      </trkpt>
      <trkpt lat="47.587601552" lon="0.457078256">
        <ele>103.000000</ele>
        <time>2015-01-27T09:13:45Z</time>
      </trkpt>
      <trkpt lat="47.587705068" lon="0.456947833">
        <ele>103.480000</ele>
        <time>2015-01-27T09:13:57Z</time>
      </trkpt>
      <trkpt lat="47.587811183" lon="0.456808778">
        <ele>104.920000</ele>
        <time>2015-01-27T09:14:11Z</time>
      </trkpt>
      <trkpt lat="47.587934146" lon="0.456630914">
        <ele>105.400000</ele>
        <time>2015-01-27T09:14:26Z</time>
      </trkpt>
      <trkpt lat="47.587983431" lon="0.456494791">
        <ele>106.360000</ele>
        <time>2015-01-27T09:14:41Z</time>
      </trkpt>
      <trkpt lat="47.587996339" lon="0.456494205">
        <ele>105.880000</ele>
        <time>2015-01-27T09:14:47Z</time>
      </trkpt>
      <trkpt lat="47.588030286" lon="0.456463359">
        <ele>105.880000</ele>
        <time>2015-01-27T09:14:50Z</time>
      </trkpt>
      <trkpt lat="47.588143190" lon="0.456336876">
        <ele>107.320000</ele>
        <time>2015-01-27T09:15:08Z</time>
      </trkpt>
      <trkpt lat="47.588241510" lon="0.456221038">
        <ele>107.320000</ele>
        <time>2015-01-27T09:15:22Z</time>
      </trkpt>
      <trkpt lat="47.588337064" lon="0.456140740">
        <ele>107.810000</ele>
        <time>2015-01-27T09:15:35Z</time>
      </trkpt>
      <trkpt lat="47.588371933" lon="0.456109308">
        <ele>109.250000</ele>
        <time>2015-01-27T09:15:39Z</time>
      </trkpt>
      <trkpt lat="47.588492967" lon="0.456047030">
        <ele>108.290000</ele>
        <time>2015-01-27T09:15:48Z</time>
      </trkpt>
      <trkpt lat="47.588567901" lon="0.456011323">
        <ele>108.290000</ele>
        <time>2015-01-27T09:15:54Z</time>
      </trkpt>
      <trkpt lat="47.588740569" lon="0.455934796">
        <ele>108.290000</ele>
        <time>2015-01-27T09:16:09Z</time>
      </trkpt>
      <trkpt lat="47.588858083" lon="0.455836644">
        <ele>108.290000</ele>
        <time>2015-01-27T09:16:23Z</time>
      </trkpt>
      <trkpt lat="47.588960258" lon="0.455708234">
        <ele>107.810000</ele>
        <time>2015-01-27T09:16:36Z</time>
      </trkpt>
      <trkpt lat="47.589086238" lon="0.455572028">
        <ele>107.320000</ele>
        <time>2015-01-27T09:16:51Z</time>
      </trkpt>
      <trkpt lat="47.589237364" lon="0.455416879">
        <ele>106.360000</ele>
        <time>2015-01-27T09:17:07Z</time>
      </trkpt>
      <trkpt lat="47.589427885" lon="0.455209343">
        <ele>104.920000</ele>
        <time>2015-01-27T09:17:25Z</time>
      </trkpt>
      <trkpt lat="47.589548333" lon="0.455054780">
        <ele>103.960000</ele>
        <time>2015-01-27T09:17:41Z</time>
      </trkpt>
      <trkpt lat="47.589632571" lon="0.454944139">
        <ele>102.040000</ele>
        <time>2015-01-27T09:17:53Z</time>
      </trkpt>
      <trkpt lat="47.589736003" lon="0.454736436">
        <ele>99.150000</ele>
        <time>2015-01-27T09:18:08Z</time>
      </trkpt>
      <trkpt lat="47.589803729" lon="0.454609031">
        <ele>97.230000</ele>
        <time>2015-01-27T09:18:18Z</time>
      </trkpt>
      <trkpt lat="47.589934152" lon="0.454355646">
        <ele>95.310000</ele>
        <time>2015-01-27T09:18:36Z</time>
      </trkpt>
      <trkpt lat="47.590082511" lon="0.454195049">
        <ele>94.350000</ele>
        <time>2015-01-27T09:18:50Z</time>
      </trkpt>
      <trkpt lat="47.590245707" lon="0.454013832">
        <ele>92.900000</ele>
        <time>2015-01-27T09:19:06Z</time>
      </trkpt>
      <trkpt lat="47.590312762" lon="0.453968318">
        <ele>91.940000</ele>
        <time>2015-01-27T09:19:13Z</time>
      </trkpt>
      <trkpt lat="47.590487525" lon="0.453858180">
        <ele>90.500000</ele>
        <time>2015-01-27T09:19:28Z</time>
      </trkpt>
      <trkpt lat="47.590632616" lon="0.453697164">
        <ele>90.500000</ele>
        <time>2015-01-27T09:19:44Z</time>
      </trkpt>
      <trkpt lat="47.590693133" lon="0.453519132">
        <ele>90.020000</ele>
        <time>2015-01-27T09:20:00Z</time>
      </trkpt>
      <trkpt lat="47.590698414" lon="0.453483174">
        <ele>90.020000</ele>
        <time>2015-01-27T09:20:05Z</time>
      </trkpt>
      <trkpt lat="47.590749711" lon="0.453554504">
        <ele>90.020000</ele>
        <time>2015-01-27T09:20:20Z</time>
      </trkpt>
      <trkpt lat="47.590791117" lon="0.453608148">
        <ele>90.500000</ele>
        <time>2015-01-27T09:20:25Z</time>
      </trkpt>
      <trkpt lat="47.590833278" lon="0.453630527">
        <ele>90.500000</ele>
        <time>2015-01-27T09:20:29Z</time>
      </trkpt>
      <trkpt lat="47.590889353" lon="0.453687692">
        <ele>90.500000</ele>
        <time>2015-01-27T09:20:35Z</time>
      </trkpt>
      <trkpt lat="47.591079706" lon="0.453835884">
        <ele>91.460000</ele>
        <time>2015-01-27T09:20:50Z</time>
      </trkpt>
      <trkpt lat="47.591213314" lon="0.453960774">
        <ele>93.390000</ele>
        <time>2015-01-27T09:21:06Z</time>
      </trkpt>
      <trkpt lat="47.591343233" lon="0.454052389">
        <ele>94.350000</ele>
        <time>2015-01-27T09:21:21Z</time>
      </trkpt>
      <trkpt lat="47.591473404" lon="0.454135453">
        <ele>95.790000</ele>
        <time>2015-01-27T09:21:36Z</time>
      </trkpt>
      <trkpt lat="47.591607347" lon="0.454257494">
        <ele>97.230000</ele>
        <time>2015-01-27T09:21:55Z</time>
      </trkpt>
      <trkpt lat="47.591626290" lon="0.454270486">
        <ele>97.230000</ele>
        <time>2015-01-27T09:21:57Z</time>
      </trkpt>
      <trkpt lat="47.591737099" lon="0.454363106">
        <ele>98.670000</ele>
        <time>2015-01-27T09:22:12Z</time>
      </trkpt>
      <trkpt lat="47.591869030" lon="0.454403674">
        <ele>99.630000</ele>
        <time>2015-01-27T09:22:27Z</time>
      </trkpt>
      <trkpt lat="47.591984449" lon="0.454291943">
        <ele>100.600000</ele>
        <time>2015-01-27T09:22:39Z</time>
      </trkpt>
      <trkpt lat="47.592083439" lon="0.454127742">
        <ele>101.560000</ele>
        <time>2015-01-27T09:22:53Z</time>
      </trkpt>
      <trkpt lat="47.592148148" lon="0.454017436">
        <ele>102.040000</ele>
        <time>2015-01-27T09:23:04Z</time>
      </trkpt>
      <trkpt lat="47.592220735" lon="0.453865137">
        <ele>103.000000</ele>
        <time>2015-01-27T09:23:17Z</time>
      </trkpt>
      <trkpt lat="47.592304386" lon="0.453697499">
        <ele>103.480000</ele>
        <time>2015-01-27T09:23:31Z</time>
      </trkpt>
      <trkpt lat="47.592397928" lon="0.453538494">
        <ele>105.880000</ele>
        <time>2015-01-27T09:23:43Z</time>
      </trkpt>
      <trkpt lat="47.592460457" lon="0.453448053">
        <ele>104.920000</ele>
        <time>2015-01-27T09:23:53Z</time>
      </trkpt>
      <trkpt lat="47.592530614" lon="0.453305058">
        <ele>105.400000</ele>
        <time>2015-01-27T09:24:06Z</time>
      </trkpt>
      <trkpt lat="47.592642177" lon="0.453189388">
        <ele>105.400000</ele>
        <time>2015-01-27T09:24:21Z</time>
      </trkpt>
      <trkpt lat="47.592686433" lon="0.453188382">
        <ele>105.880000</ele>
        <time>2015-01-27T09:24:34Z</time>
      </trkpt>
      <trkpt lat="47.592722392" lon="0.453186706">
        <ele>105.880000</ele>
        <time>2015-01-27T09:24:57Z</time>
      </trkpt>
      <trkpt lat="47.592732199" lon="0.453180000">
        <ele>105.400000</ele>
        <time>2015-01-27T09:25:16Z</time>
      </trkpt>
      <trkpt lat="47.592617702" lon="0.453225346">
        <ele>105.400000</ele>
        <time>2015-01-27T09:25:33Z</time>
      </trkpt>
      <trkpt lat="47.592548048" lon="0.453226101">
        <ele>105.880000</ele>
        <time>2015-01-27T09:25:46Z</time>
      </trkpt>
      <trkpt lat="47.592523070" lon="0.453230375">
        <ele>105.400000</ele>
        <time>2015-01-27T09:26:23Z</time>
      </trkpt>
      <trkpt lat="47.592557352" lon="0.453245379">
        <ele>105.400000</ele>
        <time>2015-01-27T09:26:49Z</time>
      </trkpt>
      <trkpt lat="47.592659360" lon="0.453209421">
        <ele>105.400000</ele>
        <time>2015-01-27T09:27:09Z</time>
      </trkpt>
      <trkpt lat="47.592706634" lon="0.453205230">
        <ele>105.400000</ele>
        <time>2015-01-27T09:27:26Z</time>
      </trkpt>
      <trkpt lat="47.592739491" lon="0.453174468">
        <ele>105.880000</ele>
        <time>2015-01-27T09:27:39Z</time>
      </trkpt>
      <trkpt lat="47.592793554" lon="0.453277566">
        <ele>105.400000</ele>
        <time>2015-01-27T09:27:55Z</time>
      </trkpt>
      <trkpt lat="47.592776287" lon="0.453335987">
        <ele>105.400000</ele>
        <time>2015-01-27T09:28:24Z</time>
      </trkpt>
      <trkpt lat="47.592775533" lon="0.453325761">
        <ele>105.880000</ele>
        <time>2015-01-27T09:28:57Z</time>
      </trkpt>
      <trkpt lat="47.592801936" lon="0.453345207">
        <ele>105.880000</ele>
        <time>2015-01-27T09:29:15Z</time>
      </trkpt>
      <trkpt lat="47.592832698" lon="0.453333976">
        <ele>105.880000</ele>
        <time>2015-01-27T09:29:30Z</time>
      </trkpt>
      <trkpt lat="47.592814928" lon="0.453407988">
        <ele>105.880000</ele>
        <time>2015-01-27T09:29:45Z</time>
      </trkpt>
      <trkpt lat="47.592806378" lon="0.453484515">
        <ele>105.880000</ele>
        <time>2015-01-27T09:29:57Z</time>
      </trkpt>
      <trkpt lat="47.592841499" lon="0.453683585">
        <ele>105.880000</ele>
        <time>2015-01-27T09:30:22Z</time>
      </trkpt>
      <trkpt lat="47.592891119" lon="0.453824904">
        <ele>105.880000</ele>
        <time>2015-01-27T09:30:36Z</time>
      </trkpt>
      <trkpt lat="47.592914421" lon="0.453872764">
        <ele>105.400000</ele>
        <time>2015-01-27T09:30:41Z</time>
      </trkpt>
      <trkpt lat="47.592937052" lon="0.453926744">
        <ele>105.880000</ele>
        <time>2015-01-27T09:30:45Z</time>
      </trkpt>
      <trkpt lat="47.593008047" lon="0.454194713">
        <ele>106.360000</ele>
        <time>2015-01-27T09:31:03Z</time>
      </trkpt>
      <trkpt lat="47.593025146" lon="0.454209968">
        <ele>106.360000</ele>
        <time>2015-01-27T09:31:05Z</time>
      </trkpt>
      <trkpt lat="47.593069486" lon="0.454179123">
        <ele>106.840000</ele>
        <time>2015-01-27T09:31:10Z</time>
      </trkpt>
      <trkpt lat="47.593151713" lon="0.454010563">
        <ele>107.320000</ele>
        <time>2015-01-27T09:31:23Z</time>
      </trkpt>
      <trkpt lat="47.593262438" lon="0.453852648">
        <ele>108.290000</ele>
        <time>2015-01-27T09:31:38Z</time>
      </trkpt>
      <trkpt lat="47.593279453" lon="0.453815935">
        <ele>108.770000</ele>
        <time>2015-01-27T09:31:41Z</time>
      </trkpt>
      <trkpt lat="47.593293451" lon="0.453794394">
        <ele>108.290000</ele>
        <time>2015-01-27T09:31:43Z</time>
      </trkpt>
      <trkpt lat="47.593313232" lon="0.453775199">
        <ele>108.290000</ele>
        <time>2015-01-27T09:31:52Z</time>
      </trkpt>
      <trkpt lat="47.593490425" lon="0.453520389">
        <ele>108.770000</ele>
        <time>2015-01-27T09:32:10Z</time>
      </trkpt>
      <trkpt lat="47.593613220" lon="0.453387117">
        <ele>110.210000</ele>
        <time>2015-01-27T09:32:23Z</time>
      </trkpt>
      <trkpt lat="47.593658147" lon="0.453346800">
        <ele>110.210000</ele>
        <time>2015-01-27T09:32:28Z</time>
      </trkpt>
      <trkpt lat="47.593677174" lon="0.453339927">
        <ele>110.690000</ele>
        <time>2015-01-27T09:32:30Z</time>
      </trkpt>
      <trkpt lat="47.593827210" lon="0.453236327">
        <ele>111.170000</ele>
        <time>2015-01-27T09:32:46Z</time>
      </trkpt>
      <trkpt lat="47.594010774" lon="0.453110011">
        <ele>111.650000</ele>
        <time>2015-01-27T09:33:04Z</time>
      </trkpt>
      <trkpt lat="47.594073890" lon="0.453036502">
        <ele>111.650000</ele>
        <time>2015-01-27T09:33:11Z</time>
      </trkpt>
      <trkpt lat="47.594242617" lon="0.452918988">
        <ele>112.130000</ele>
        <time>2015-01-27T09:33:26Z</time>
      </trkpt>
      <trkpt lat="47.594330795" lon="0.452858219">
        <ele>112.130000</ele>
        <time>2015-01-27T09:33:34Z</time>
      </trkpt>
      <trkpt lat="47.594450656" lon="0.452752439">
        <ele>112.130000</ele>
        <time>2015-01-27T09:33:46Z</time>
      </trkpt>
      <trkpt lat="47.594495751" lon="0.452723857">
        <ele>112.130000</ele>
        <time>2015-01-27T09:33:50Z</time>
      </trkpt>
      <trkpt lat="47.594669173" lon="0.452583292">
        <ele>111.650000</ele>
        <time>2015-01-27T09:34:06Z</time>
      </trkpt>
      <trkpt lat="47.594862711" lon="0.452374918">
        <ele>111.170000</ele>
        <time>2015-01-27T09:34:24Z</time>
      </trkpt>
      <trkpt lat="47.594905458" lon="0.452318005">
        <ele>111.170000</ele>
        <time>2015-01-27T09:34:29Z</time>
      </trkpt>
      <trkpt lat="47.594927419" lon="0.452283472">
        <ele>111.170000</ele>
        <time>2015-01-27T09:34:32Z</time>
      </trkpt>
      <trkpt lat="47.595012663" lon="0.451996475">
        <ele>111.170000</ele>
        <time>2015-01-27T09:34:51Z</time>
      </trkpt>
      <trkpt lat="47.595034121" lon="0.451918272">
        <ele>111.170000</ele>
        <time>2015-01-27T09:34:56Z</time>
      </trkpt>
      <trkpt lat="47.595005790" lon="0.451835375">
        <ele>111.170000</ele>
        <time>2015-01-27T09:35:02Z</time>
      </trkpt>
      <trkpt lat="47.594962288" lon="0.451709311">
        <ele>111.650000</ele>
        <time>2015-01-27T09:35:10Z</time>
      </trkpt>
      <trkpt lat="47.594948709" lon="0.451676287">
        <ele>111.650000</ele>
        <time>2015-01-27T09:35:12Z</time>
      </trkpt>
      <trkpt lat="47.594863633" lon="0.451317122">
        <ele>112.130000</ele>
        <time>2015-01-27T09:35:32Z</time>
      </trkpt>
      <trkpt lat="47.594788196" lon="0.450987881">
        <ele>112.610000</ele>
        <time>2015-01-27T09:35:51Z</time>
      </trkpt>
      <trkpt lat="47.594714351" lon="0.450720079">
        <ele>113.090000</ele>
        <time>2015-01-27T09:36:08Z</time>
      </trkpt>
      <trkpt lat="47.594657186" lon="0.450415649">
        <ele>113.570000</ele>
        <time>2015-01-27T09:36:26Z</time>
      </trkpt>
      <trkpt lat="47.594623324" lon="0.450215908">
        <ele>113.570000</ele>
        <time>2015-01-27T09:36:38Z</time>
      </trkpt>
      <trkpt lat="47.594625000" lon="0.450187325">
        <ele>113.570000</ele>
        <time>2015-01-27T09:36:40Z</time>
      </trkpt>
      <trkpt lat="47.594651738" lon="0.450127311">
        <ele>113.570000</ele>
        <time>2015-01-27T09:36:44Z</time>
      </trkpt>
      <trkpt lat="47.594785849" lon="0.450046761">
        <ele>112.610000</ele>
        <time>2015-01-27T09:36:58Z</time>
      </trkpt>
      <trkpt lat="47.594907805" lon="0.449991776">
        <ele>111.650000</ele>
        <time>2015-01-27T09:37:10Z</time>
      </trkpt>
      <trkpt lat="47.594936220" lon="0.449980460">
        <ele>111.170000</ele>
        <time>2015-01-27T09:37:12Z</time>
      </trkpt>
      <trkpt lat="47.595093548" lon="0.449904520">
        <ele>110.690000</ele>
        <time>2015-01-27T09:37:25Z</time>
      </trkpt>
      <trkpt lat="47.595332684" lon="0.449803267">
        <ele>109.730000</ele>
        <time>2015-01-27T09:37:44Z</time>
      </trkpt>
      <trkpt lat="47.595403176" lon="0.449763620">
        <ele>109.730000</ele>
        <time>2015-01-27T09:37:49Z</time>
      </trkpt>
      <trkpt lat="47.595456317" lon="0.449741157">
        <ele>109.730000</ele>
        <time>2015-01-27T09:37:53Z</time>
      </trkpt>
      <trkpt lat="47.595744906" lon="0.449620038">
        <ele>109.730000</ele>
        <time>2015-01-27T09:38:14Z</time>
      </trkpt>
      <trkpt lat="47.595949257" lon="0.449557845">
        <ele>110.690000</ele>
        <time>2015-01-27T09:38:31Z</time>
      </trkpt>
      <trkpt lat="47.596161067" lon="0.449472936">
        <ele>112.130000</ele>
        <time>2015-01-27T09:38:50Z</time>
      </trkpt>
      <trkpt lat="47.596344296" lon="0.449375287">
        <ele>113.090000</ele>
        <time>2015-01-27T09:39:05Z</time>
      </trkpt>
      <trkpt lat="47.596527524" lon="0.449278979">
        <ele>114.530000</ele>
        <time>2015-01-27T09:39:20Z</time>
      </trkpt>
      <trkpt lat="47.596695498" lon="0.449168338">
        <ele>115.010000</ele>
        <time>2015-01-27T09:39:34Z</time>
      </trkpt>
      <trkpt lat="47.596730785" lon="0.449150819">
        <ele>115.010000</ele>
        <time>2015-01-27T09:39:37Z</time>
      </trkpt>
      <trkpt lat="47.596941171" lon="0.448994078">
        <ele>115.980000</ele>
        <time>2015-01-27T09:39:57Z</time>
      </trkpt>
      <trkpt lat="47.597133452" lon="0.448874384">
        <ele>115.980000</ele>
        <time>2015-01-27T09:40:14Z</time>
      </trkpt>
      <trkpt lat="47.597354902" lon="0.448754020">
        <ele>116.460000</ele>
        <time>2015-01-27T09:40:33Z</time>
      </trkpt>
      <trkpt lat="47.597430339" lon="0.448725941">
        <ele>116.460000</ele>
        <time>2015-01-27T09:40:39Z</time>
      </trkpt>
      <trkpt lat="47.597489012" lon="0.448711775">
        <ele>116.460000</ele>
        <time>2015-01-27T09:40:44Z</time>
      </trkpt>
      <trkpt lat="47.597619938" lon="0.448759384">
        <ele>116.460000</ele>
        <time>2015-01-27T09:40:59Z</time>
      </trkpt>
      <trkpt lat="47.597753797" lon="0.448994162">
        <ele>115.980000</ele>
        <time>2015-01-27T09:41:15Z</time>
      </trkpt>
      <trkpt lat="47.597895786" lon="0.449299011">
        <ele>115.500000</ele>
        <time>2015-01-27T09:41:34Z</time>
      </trkpt>
      <trkpt lat="47.597969547" lon="0.449516270">
        <ele>115.500000</ele>
        <time>2015-01-27T09:41:46Z</time>
      </trkpt>
      <trkpt lat="47.598084882" lon="0.449799495">
        <ele>115.010000</ele>
        <time>2015-01-27T09:42:03Z</time>
      </trkpt>
      <trkpt lat="47.598203486" lon="0.450101998">
        <ele>115.010000</ele>
        <time>2015-01-27T09:42:21Z</time>
      </trkpt>
      <trkpt lat="47.598324856" lon="0.450400393">
        <ele>114.050000</ele>
        <time>2015-01-27T09:42:40Z</time>
      </trkpt>
      <trkpt lat="47.598384703" lon="0.450530732">
        <ele>114.050000</ele>
        <time>2015-01-27T09:42:49Z</time>
      </trkpt>
      <trkpt lat="47.598434323" lon="0.450518830">
        <ele>113.570000</ele>
        <time>2015-01-27T09:42:53Z</time>
      </trkpt>
      <trkpt lat="47.598633058" lon="0.450359238">
        <ele>113.090000</ele>
        <time>2015-01-27T09:43:10Z</time>
      </trkpt>
      <trkpt lat="47.598820897" lon="0.450266534">
        <ele>113.570000</ele>
        <time>2015-01-27T09:43:27Z</time>
      </trkpt>
      <trkpt lat="47.599002197" lon="0.450199815">
        <ele>112.610000</ele>
        <time>2015-01-27T09:43:43Z</time>
      </trkpt>
      <trkpt lat="47.599167153" lon="0.450125299">
        <ele>111.650000</ele>
        <time>2015-01-27T09:43:58Z</time>
      </trkpt>
      <trkpt lat="47.599254660" lon="0.450082468">
        <ele>111.170000</ele>
        <time>2015-01-27T09:44:06Z</time>
      </trkpt>
      <trkpt lat="47.599402433" lon="0.449922122">
        <ele>109.250000</ele>
        <time>2015-01-27T09:44:24Z</time>
      </trkpt>
      <trkpt lat="47.599420371" lon="0.449825479">
        <ele>108.770000</ele>
        <time>2015-01-27T09:44:31Z</time>
      </trkpt>
      <trkpt lat="47.599393632" lon="0.449628253">
        <ele>108.290000</ele>
        <time>2015-01-27T09:44:43Z</time>
      </trkpt>
      <trkpt lat="47.599346191" lon="0.449373024">
        <ele>108.770000</ele>
        <time>2015-01-27T09:44:58Z</time>
      </trkpt>
      <trkpt lat="47.599316686" lon="0.449294820">
        <ele>109.250000</ele>
        <time>2015-01-27T09:45:03Z</time>
      </trkpt>
      <trkpt lat="47.599248290" lon="0.449005058">
        <ele>108.770000</ele>
        <time>2015-01-27T09:45:20Z</time>
      </trkpt>
      <trkpt lat="47.599194981" lon="0.448660227">
        <ele>108.290000</ele>
        <time>2015-01-27T09:45:39Z</time>
      </trkpt>
      <trkpt lat="47.599197244" lon="0.448400639">
        <ele>108.770000</ele>
        <time>2015-01-27T09:45:53Z</time>
      </trkpt>
      <trkpt lat="47.599204369" lon="0.448296703">
        <ele>106.840000</ele>
        <time>2015-01-27T09:45:59Z</time>
      </trkpt>
      <trkpt lat="47.599210236" lon="0.447995625">
        <ele>105.400000</ele>
        <time>2015-01-27T09:46:17Z</time>
      </trkpt>
      <trkpt lat="47.599215265" lon="0.447963690">
        <ele>105.400000</ele>
        <time>2015-01-27T09:46:19Z</time>
      </trkpt>
      <trkpt lat="47.599224569" lon="0.447820276">
        <ele>104.920000</ele>
        <time>2015-01-27T09:46:28Z</time>
      </trkpt>
      <trkpt lat="47.599225659" lon="0.447715754">
        <ele>103.960000</ele>
        <time>2015-01-27T09:46:35Z</time>
      </trkpt>
      <trkpt lat="47.599231862" lon="0.447444348">
        <ele>102.520000</ele>
        <time>2015-01-27T09:46:51Z</time>
      </trkpt>
      <trkpt lat="47.599234208" lon="0.447390536">
        <ele>102.040000</ele>
        <time>2015-01-27T09:46:54Z</time>
      </trkpt>
      <trkpt lat="47.599227000" lon="0.447122902">
        <ele>100.600000</ele>
        <time>2015-01-27T09:47:09Z</time>
      </trkpt>
      <trkpt lat="47.599214930" lon="0.446902625">
        <ele>99.150000</ele>
        <time>2015-01-27T09:47:24Z</time>
      </trkpt>
      <trkpt lat="47.599232113" lon="0.446856525">
        <ele>99.150000</ele>
        <time>2015-01-27T09:47:35Z</time>
      </trkpt>
      <trkpt lat="47.599215098" lon="0.446817968">
        <ele>99.150000</ele>
        <time>2015-01-27T09:47:51Z</time>
      </trkpt>
      <trkpt lat="47.599206883" lon="0.446808329">
        <ele>99.150000</ele>
        <time>2015-01-27T09:48:11Z</time>
      </trkpt>
      <trkpt lat="47.599223899" lon="0.446741609">
        <ele>99.150000</ele>
        <time>2015-01-27T09:48:31Z</time>
      </trkpt>
      <trkpt lat="47.599209817" lon="0.446728365">
        <ele>99.150000</ele>
        <time>2015-01-27T09:48:48Z</time>
      </trkpt>
      <trkpt lat="47.599177966" lon="0.446679918">
        <ele>98.670000</ele>
        <time>2015-01-27T09:49:06Z</time>
      </trkpt>
      <trkpt lat="47.599163717" lon="0.446634321">
        <ele>98.190000</ele>
        <time>2015-01-27T09:49:18Z</time>
      </trkpt>
      <trkpt lat="47.599153910" lon="0.446454613">
        <ele>95.790000</ele>
        <time>2015-01-27T09:49:34Z</time>
      </trkpt>
      <trkpt lat="47.599109989" lon="0.446282113">
        <ele>94.830000</ele>
        <time>2015-01-27T09:49:48Z</time>
      </trkpt>
      <trkpt lat="47.599045783" lon="0.446076421">
        <ele>93.870000</ele>
        <time>2015-01-27T09:50:03Z</time>
      </trkpt>
      <trkpt lat="47.598977722" lon="0.445813900">
        <ele>91.940000</ele>
        <time>2015-01-27T09:50:20Z</time>
      </trkpt>
      <trkpt lat="47.598944530" lon="0.445695799">
        <ele>90.980000</ele>
        <time>2015-01-27T09:50:30Z</time>
      </trkpt>
      <trkpt lat="47.598880325" lon="0.445483988">
        <ele>89.540000</ele>
        <time>2015-01-27T09:50:47Z</time>
      </trkpt>
      <trkpt lat="47.598823663" lon="0.445343927">
        <ele>88.100000</ele>
        <time>2015-01-27T09:50:57Z</time>
      </trkpt>
      <trkpt lat="47.598761469" lon="0.445182826">
        <ele>87.620000</ele>
        <time>2015-01-27T09:51:12Z</time>
      </trkpt>
      <trkpt lat="47.598754261" lon="0.445145108">
        <ele>87.620000</ele>
        <time>2015-01-27T09:51:20Z</time>
      </trkpt>
      <trkpt lat="47.598751411" lon="0.445116861">
        <ele>87.620000</ele>
        <time>2015-01-27T09:51:22Z</time>
      </trkpt>
      <trkpt lat="47.598680165" lon="0.444973866">
        <ele>87.140000</ele>
        <time>2015-01-27T09:51:33Z</time>
      </trkpt>
      <trkpt lat="47.598643787" lon="0.444928519">
        <ele>87.140000</ele>
        <time>2015-01-27T09:51:37Z</time>
      </trkpt>
      <trkpt lat="47.598573547" lon="0.444805808">
        <ele>87.140000</ele>
        <time>2015-01-27T09:51:53Z</time>
      </trkpt>
      <trkpt lat="47.598547731" lon="0.444764821">
        <ele>87.140000</ele>
        <time>2015-01-27T09:52:06Z</time>
      </trkpt>
      <trkpt lat="47.598373052" lon="0.444478914">
        <ele>87.140000</ele>
        <time>2015-01-27T09:52:25Z</time>
      </trkpt>
      <trkpt lat="47.598225782" lon="0.444212202">
        <ele>88.100000</ele>
        <time>2015-01-27T09:52:43Z</time>
      </trkpt>
      <trkpt lat="47.598091671" lon="0.443946496">
        <ele>88.580000</ele>
        <time>2015-01-27T09:53:00Z</time>
      </trkpt>
      <trkpt lat="47.597978180" lon="0.443683304">
        <ele>88.100000</ele>
        <time>2015-01-27T09:53:17Z</time>
      </trkpt>
      <trkpt lat="47.597883968" lon="0.443377784">
        <ele>87.620000</ele>
        <time>2015-01-27T09:53:33Z</time>
      </trkpt>
      <trkpt lat="47.597772572" lon="0.443131272">
        <ele>87.140000</ele>
        <time>2015-01-27T09:53:49Z</time>
      </trkpt>
      <trkpt lat="47.597694537" lon="0.442855675">
        <ele>87.140000</ele>
        <time>2015-01-27T09:54:08Z</time>
      </trkpt>
      <trkpt lat="47.597679785" lon="0.442597596">
        <ele>86.660000</ele>
        <time>2015-01-27T09:54:23Z</time>
      </trkpt>
      <trkpt lat="47.597722113" lon="0.442351839">
        <ele>86.180000</ele>
        <time>2015-01-27T09:54:38Z</time>
      </trkpt>
      <trkpt lat="47.597800903" lon="0.442053108">
        <ele>85.690000</ele>
        <time>2015-01-27T09:54:55Z</time>
      </trkpt>
      <trkpt lat="47.597852955" lon="0.441783713">
        <ele>85.210000</ele>
        <time>2015-01-27T09:55:11Z</time>
      </trkpt>
      <trkpt lat="47.597891008" lon="0.441622948">
        <ele>85.210000</ele>
        <time>2015-01-27T09:55:20Z</time>
      </trkpt>
      <trkpt lat="47.597912131" lon="0.441389345">
        <ele>84.730000</ele>
        <time>2015-01-27T09:55:33Z</time>
      </trkpt>
      <trkpt lat="47.597923111" lon="0.441291863">
        <ele>84.730000</ele>
        <time>2015-01-27T09:55:38Z</time>
      </trkpt>
      <trkpt lat="47.597905928" lon="0.440937476">
        <ele>84.730000</ele>
        <time>2015-01-27T09:55:58Z</time>
      </trkpt>
      <trkpt lat="47.597885057" lon="0.440623825">
        <ele>84.730000</ele>
        <time>2015-01-27T09:56:15Z</time>
      </trkpt>
      <trkpt lat="47.597881956" lon="0.440436406">
        <ele>84.250000</ele>
        <time>2015-01-27T09:56:25Z</time>
      </trkpt>
      <trkpt lat="47.597890757" lon="0.440408997">
        <ele>84.730000</ele>
        <time>2015-01-27T09:56:27Z</time>
      </trkpt>
      <trkpt lat="47.597858738" lon="0.440120911">
        <ele>84.250000</ele>
        <time>2015-01-27T09:56:43Z</time>
      </trkpt>
      <trkpt lat="47.597887991" lon="0.439930139">
        <ele>84.250000</ele>
        <time>2015-01-27T09:56:54Z</time>
      </trkpt>
      <trkpt lat="47.597951693" lon="0.439786809">
        <ele>84.250000</ele>
        <time>2015-01-27T09:57:04Z</time>
      </trkpt>
      <trkpt lat="47.598065017" lon="0.439674994">
        <ele>84.250000</ele>
        <time>2015-01-27T09:57:16Z</time>
      </trkpt>
      <trkpt lat="47.598067280" lon="0.439671138">
        <ele>84.250000</ele>
        <time>2015-01-27T09:57:17Z</time>
      </trkpt>
      <trkpt lat="47.598242965" lon="0.439523282">
        <ele>83.770000</ele>
        <time>2015-01-27T09:57:33Z</time>
      </trkpt>
      <trkpt lat="47.598450249" lon="0.439381795">
        <ele>83.770000</ele>
        <time>2015-01-27T09:57:50Z</time>
      </trkpt>
      <trkpt lat="47.598594418" lon="0.439300155">
        <ele>83.290000</ele>
        <time>2015-01-27T09:58:03Z</time>
      </trkpt>
      <trkpt lat="47.598742275" lon="0.439345418">
        <ele>83.770000</ele>
        <time>2015-01-27T09:58:17Z</time>
      </trkpt>
      <trkpt lat="47.598759960" lon="0.439373665">
        <ele>83.770000</ele>
        <time>2015-01-27T09:58:21Z</time>
      </trkpt>
      <trkpt lat="47.598898849" lon="0.439647418">
        <ele>84.250000</ele>
        <time>2015-01-27T09:58:39Z</time>
      </trkpt>
      <trkpt lat="47.598937405" lon="0.439769039">
        <ele>84.730000</ele>
        <time>2015-01-27T09:58:46Z</time>
      </trkpt>
      <trkpt lat="47.599063385" lon="0.440016389">
        <ele>85.210000</ele>
        <time>2015-01-27T09:59:02Z</time>
      </trkpt>
      <trkpt lat="47.599175703" lon="0.440199198">
        <ele>85.690000</ele>
        <time>2015-01-27T09:59:16Z</time>
      </trkpt>
      <trkpt lat="47.599313501" lon="0.440395335">
        <ele>86.180000</ele>
        <time>2015-01-27T09:59:31Z</time>
      </trkpt>
      <trkpt lat="47.599413078" lon="0.440573953">
        <ele>85.690000</ele>
        <time>2015-01-27T09:59:43Z</time>
      </trkpt>
      <trkpt lat="47.599450881" lon="0.440623658">
        <ele>85.690000</ele>
        <time>2015-01-27T09:59:47Z</time>
      </trkpt>
      <trkpt lat="47.599618267" lon="0.440900428">
        <ele>85.690000</ele>
        <time>2015-01-27T10:00:06Z</time>
      </trkpt>
      <trkpt lat="47.599772327" lon="0.441147778">
        <ele>85.690000</ele>
        <time>2015-01-27T10:00:23Z</time>
      </trkpt>
      <trkpt lat="47.599938288" lon="0.441345256">
        <ele>85.690000</ele>
        <time>2015-01-27T10:00:40Z</time>
      </trkpt>
      <trkpt lat="47.600044655" lon="0.441429159">
        <ele>85.690000</ele>
        <time>2015-01-27T10:00:50Z</time>
      </trkpt>
      <trkpt lat="47.600181364" lon="0.441512140">
        <ele>86.180000</ele>
        <time>2015-01-27T10:01:07Z</time>
      </trkpt>
      <trkpt lat="47.600216316" lon="0.441591600">
        <ele>86.660000</ele>
        <time>2015-01-27T10:01:19Z</time>
      </trkpt>
      <trkpt lat="47.600208521" lon="0.441638874">
        <ele>86.660000</ele>
        <time>2015-01-27T10:01:28Z</time>
      </trkpt>
      <trkpt lat="47.600113302" lon="0.441749850">
        <ele>87.620000</ele>
        <time>2015-01-27T10:01:43Z</time>
      </trkpt>
      <trkpt lat="47.599998638" lon="0.441836854">
        <ele>88.580000</ele>
        <time>2015-01-27T10:01:56Z</time>
      </trkpt>
      <trkpt lat="47.599969385" lon="0.441898629">
        <ele>89.060000</ele>
        <time>2015-01-27T10:02:11Z</time>
      </trkpt>
      <trkpt lat="47.599967206" lon="0.441940455">
        <ele>89.060000</ele>
        <time>2015-01-27T10:02:32Z</time>
      </trkpt>
      <trkpt lat="47.599956477" lon="0.441954872">
        <ele>89.060000</ele>
        <time>2015-01-27T10:02:51Z</time>
      </trkpt>
      <trkpt lat="47.599955639" lon="0.441966103">
        <ele>89.060000</ele>
        <time>2015-01-27T10:02:56Z</time>
      </trkpt>
      <trkpt lat="47.599864360" lon="0.441996614">
        <ele>90.020000</ele>
        <time>2015-01-27T10:03:03Z</time>
      </trkpt>
      <trkpt lat="47.599802921" lon="0.442065429">
        <ele>90.500000</ele>
        <time>2015-01-27T10:03:12Z</time>
      </trkpt>
      <trkpt lat="47.599739050" lon="0.442143464">
        <ele>90.980000</ele>
        <time>2015-01-27T10:03:18Z</time>
      </trkpt>
      <trkpt lat="47.599582225" lon="0.442423001">
        <ele>90.980000</ele>
        <time>2015-01-27T10:03:34Z</time>
      </trkpt>
      <trkpt lat="47.599559007" lon="0.442495253">
        <ele>90.980000</ele>
        <time>2015-01-27T10:03:38Z</time>
      </trkpt>
      <trkpt lat="47.599557163" lon="0.442768754">
        <ele>92.420000</ele>
        <time>2015-01-27T10:03:51Z</time>
      </trkpt>
      <trkpt lat="47.599564455" lon="0.442807898">
        <ele>92.900000</ele>
        <time>2015-01-27T10:03:53Z</time>
      </trkpt>
      <trkpt lat="47.599666296" lon="0.443143426">
        <ele>93.390000</ele>
        <time>2015-01-27T10:04:11Z</time>
      </trkpt>
      <trkpt lat="47.599763526" lon="0.443524467">
        <ele>92.420000</ele>
        <time>2015-01-27T10:04:30Z</time>
      </trkpt>
      <trkpt lat="47.599858576" lon="0.443713311">
        <ele>92.420000</ele>
        <time>2015-01-27T10:04:44Z</time>
      </trkpt>
      <trkpt lat="47.600098131" lon="0.444070548">
        <ele>91.940000</ele>
        <time>2015-01-27T10:05:06Z</time>
      </trkpt>
      <trkpt lat="47.600263339" lon="0.444368524">
        <ele>91.940000</ele>
        <time>2015-01-27T10:05:24Z</time>
      </trkpt>
      <trkpt lat="47.600451261" lon="0.444721319">
        <ele>92.900000</ele>
        <time>2015-01-27T10:05:44Z</time>
      </trkpt>
      <trkpt lat="47.600660976" lon="0.445043603">
        <ele>93.870000</ele>
        <time>2015-01-27T10:06:07Z</time>
      </trkpt>
      <trkpt lat="47.600819310" lon="0.445247535">
        <ele>94.830000</ele>
        <time>2015-01-27T10:06:27Z</time>
      </trkpt>
      <trkpt lat="47.600812018" lon="0.445274357">
        <ele>95.310000</ele>
        <time>2015-01-27T10:06:31Z</time>
      </trkpt>
      <trkpt lat="47.600972280" lon="0.445410898">
        <ele>95.310000</ele>
        <time>2015-01-27T10:06:46Z</time>
      </trkpt>
      <trkpt lat="47.601001449" lon="0.445523718">
        <ele>95.790000</ele>
        <time>2015-01-27T10:06:57Z</time>
      </trkpt>
      <trkpt lat="47.601005724" lon="0.445522629">
        <ele>95.790000</ele>
        <time>2015-01-27T10:06:58Z</time>
      </trkpt>
      <trkpt lat="47.601199346" lon="0.445645424">
        <ele>97.230000</ele>
        <time>2015-01-27T10:07:15Z</time>
      </trkpt>
      <trkpt lat="47.601208398" lon="0.445646346">
        <ele>97.710000</ele>
        <time>2015-01-27T10:07:16Z</time>
      </trkpt>
      <trkpt lat="47.601224072" lon="0.445616422">
        <ele>98.670000</ele>
        <time>2015-01-27T10:07:23Z</time>
      </trkpt>
      <trkpt lat="47.601229688" lon="0.445644837">
        <ele>98.190000</ele>
        <time>2015-01-27T10:07:25Z</time>
      </trkpt>
      <trkpt lat="47.601318453" lon="0.445903586">
        <ele>97.230000</ele>
        <time>2015-01-27T10:07:38Z</time>
      </trkpt>
      <trkpt lat="47.601493383" lon="0.446276749">
        <ele>96.750000</ele>
        <time>2015-01-27T10:07:59Z</time>
      </trkpt>
      <trkpt lat="47.601648616" lon="0.446565170">
        <ele>96.750000</ele>
        <time>2015-01-27T10:08:16Z</time>
      </trkpt>
      <trkpt lat="47.601812063" lon="0.446859878">
        <ele>97.230000</ele>
        <time>2015-01-27T10:08:35Z</time>
      </trkpt>
      <trkpt lat="47.601964613" lon="0.447140504">
        <ele>98.670000</ele>
        <time>2015-01-27T10:08:54Z</time>
      </trkpt>
      <trkpt lat="47.602027729" lon="0.447206134">
        <ele>100.110000</ele>
        <time>2015-01-27T10:09:10Z</time>
      </trkpt>
      <trkpt lat="47.602068214" lon="0.447314847">
        <ele>100.600000</ele>
        <time>2015-01-27T10:09:23Z</time>
      </trkpt>
      <trkpt lat="47.602111548" lon="0.447608801">
        <ele>98.670000</ele>
        <time>2015-01-27T10:09:37Z</time>
      </trkpt>
      <trkpt lat="47.602162594" lon="0.447951872">
        <ele>96.270000</ele>
        <time>2015-01-27T10:09:55Z</time>
      </trkpt>
      <trkpt lat="47.602221938" lon="0.448322520">
        <ele>93.870000</ele>
        <time>2015-01-27T10:10:14Z</time>
      </trkpt>
      <trkpt lat="47.602271726" lon="0.448456211">
        <ele>92.900000</ele>
        <time>2015-01-27T10:10:28Z</time>
      </trkpt>
      <trkpt lat="47.602297207" lon="0.448781596">
        <ele>91.940000</ele>
        <time>2015-01-27T10:10:48Z</time>
      </trkpt>
      <trkpt lat="47.602289245" lon="0.448777741">
        <ele>91.940000</ele>
        <time>2015-01-27T10:10:52Z</time>
      </trkpt>
      <trkpt lat="47.602395862" lon="0.449026097">
        <ele>91.460000</ele>
        <time>2015-01-27T10:11:05Z</time>
      </trkpt>
      <trkpt lat="47.602447411" lon="0.449521802">
        <ele>90.500000</ele>
        <time>2015-01-27T10:11:25Z</time>
      </trkpt>
      <trkpt lat="47.602444310" lon="0.449834196">
        <ele>90.980000</ele>
        <time>2015-01-27T10:11:39Z</time>
      </trkpt>
      <trkpt lat="47.602300057" lon="0.450117588">
        <ele>90.500000</ele>
        <time>2015-01-27T10:11:54Z</time>
      </trkpt>
      <trkpt lat="47.602132838" lon="0.450423528">
        <ele>89.540000</ele>
        <time>2015-01-27T10:12:12Z</time>
      </trkpt>
      <trkpt lat="47.602116074" lon="0.450728713">
        <ele>89.540000</ele>
        <time>2015-01-27T10:12:28Z</time>
      </trkpt>
      <trkpt lat="47.602138957" lon="0.450846478">
        <ele>89.540000</ele>
        <time>2015-01-27T10:12:34Z</time>
      </trkpt>
      <trkpt lat="47.602149351" lon="0.450970279">
        <ele>89.540000</ele>
        <time>2015-01-27T10:12:40Z</time>
      </trkpt>
      <trkpt lat="47.602200899" lon="0.451371018">
        <ele>89.540000</ele>
        <time>2015-01-27T10:12:58Z</time>
      </trkpt>
      <trkpt lat="47.602222357" lon="0.451676622">
        <ele>89.540000</ele>
        <time>2015-01-27T10:13:12Z</time>
      </trkpt>
      <trkpt lat="47.602220010" lon="0.451854402">
        <ele>90.020000</ele>
        <time>2015-01-27T10:13:26Z</time>
      </trkpt>
      <trkpt lat="47.602254124" lon="0.452213818">
        <ele>89.540000</ele>
        <time>2015-01-27T10:13:42Z</time>
      </trkpt>
      <trkpt lat="47.602254879" lon="0.452234438">
        <ele>89.540000</ele>
        <time>2015-01-27T10:13:43Z</time>
      </trkpt>
      <trkpt lat="47.602251610" lon="0.452541215">
        <ele>87.620000</ele>
        <time>2015-01-27T10:13:58Z</time>
      </trkpt>
      <trkpt lat="47.602223195" lon="0.452840282">
        <ele>85.690000</ele>
        <time>2015-01-27T10:14:14Z</time>
      </trkpt>
      <trkpt lat="47.602172317" lon="0.453132559">
        <ele>83.290000</ele>
        <time>2015-01-27T10:14:31Z</time>
      </trkpt>
      <trkpt lat="47.602152452" lon="0.453280667">
        <ele>82.330000</ele>
        <time>2015-01-27T10:14:43Z</time>
      </trkpt>
      <trkpt lat="47.602146165" lon="0.453321738">
        <ele>81.850000</ele>
        <time>2015-01-27T10:14:47Z</time>
      </trkpt>
      <trkpt lat="47.602136359" lon="0.453354428">
        <ele>81.850000</ele>
        <time>2015-01-27T10:14:49Z</time>
      </trkpt>
      <trkpt lat="47.602037620" lon="0.453580152">
        <ele>80.890000</ele>
        <time>2015-01-27T10:15:02Z</time>
      </trkpt>
      <trkpt lat="47.602010714" lon="0.453614183">
        <ele>80.890000</ele>
        <time>2015-01-27T10:15:06Z</time>
      </trkpt>
      <trkpt lat="47.601909628" lon="0.453655841">
        <ele>80.410000</ele>
        <time>2015-01-27T10:15:18Z</time>
      </trkpt>
      <trkpt lat="47.601890350" lon="0.453668414">
        <ele>80.410000</ele>
        <time>2015-01-27T10:15:20Z</time>
      </trkpt>
      <trkpt lat="47.601764537" lon="0.453688027">
        <ele>79.930000</ele>
        <time>2015-01-27T10:15:27Z</time>
      </trkpt>
      <trkpt lat="47.601487851" lon="0.453605885">
        <ele>79.930000</ele>
        <time>2015-01-27T10:15:45Z</time>
      </trkpt>
      <trkpt lat="47.601229185" lon="0.453499518">
        <ele>79.930000</ele>
        <time>2015-01-27T10:16:01Z</time>
      </trkpt>
      <trkpt lat="47.601016872" lon="0.453434894">
        <ele>79.930000</ele>
        <time>2015-01-27T10:16:16Z</time>
      </trkpt>
      <trkpt lat="47.600831464" lon="0.453403881">
        <ele>79.450000</ele>
        <time>2015-01-27T10:16:31Z</time>
      </trkpt>
      <trkpt lat="47.600663491" lon="0.453470265">
        <ele>79.450000</ele>
        <time>2015-01-27T10:16:44Z</time>
      </trkpt>
      <trkpt lat="47.600698946" lon="0.453787772">
        <ele>79.930000</ele>
        <time>2015-01-27T10:16:58Z</time>
      </trkpt>
      <trkpt lat="47.600736413" lon="0.454084324">
        <ele>79.930000</ele>
        <time>2015-01-27T10:17:15Z</time>
      </trkpt>
      <trkpt lat="47.600704059" lon="0.454274006">
        <ele>79.450000</ele>
        <time>2015-01-27T10:17:30Z</time>
      </trkpt>
      <trkpt lat="47.600690732" lon="0.454275766">
        <ele>79.450000</ele>
        <time>2015-01-27T10:17:34Z</time>
      </trkpt>
      <trkpt lat="47.600659719" lon="0.454482883">
        <ele>79.450000</ele>
        <time>2015-01-27T10:17:45Z</time>
      </trkpt>
      <trkpt lat="47.600622503" lon="0.454634177">
        <ele>79.450000</ele>
        <time>2015-01-27T10:17:52Z</time>
      </trkpt>
      <trkpt lat="47.600582605" lon="0.454734676">
        <ele>79.450000</ele>
        <time>2015-01-27T10:18:05Z</time>
      </trkpt>
      <trkpt lat="47.600623928" lon="0.454978002">
        <ele>78.970000</ele>
        <time>2015-01-27T10:18:19Z</time>
      </trkpt>
      <trkpt lat="47.600661060" lon="0.455014212">
        <ele>78.970000</ele>
        <time>2015-01-27T10:18:29Z</time>
      </trkpt>
      <trkpt lat="47.600664832" lon="0.455029132">
        <ele>78.480000</ele>
        <time>2015-01-27T10:18:31Z</time>
      </trkpt>
      <trkpt lat="47.600712106" lon="0.455040364">
        <ele>78.480000</ele>
        <time>2015-01-27T10:18:35Z</time>
      </trkpt>
      <trkpt lat="47.600771282" lon="0.455088643">
        <ele>78.000000</ele>
        <time>2015-01-27T10:18:40Z</time>
      </trkpt>
      <trkpt lat="47.600839846" lon="0.455114963">
        <ele>78.000000</ele>
        <time>2015-01-27T10:18:45Z</time>
      </trkpt>
      <trkpt lat="47.601088453" lon="0.455210516">
        <ele>78.000000</ele>
        <time>2015-01-27T10:19:04Z</time>
      </trkpt>
      <trkpt lat="47.601132710" lon="0.455218144">
        <ele>78.000000</ele>
        <time>2015-01-27T10:19:08Z</time>
      </trkpt>
      <trkpt lat="47.601278638" lon="0.455308836">
        <ele>78.480000</ele>
        <time>2015-01-27T10:19:24Z</time>
      </trkpt>
      <trkpt lat="47.601314513" lon="0.455352422">
        <ele>78.480000</ele>
        <time>2015-01-27T10:19:40Z</time>
      </trkpt>
      <trkpt lat="47.601300599" lon="0.455371952">
        <ele>78.000000</ele>
        <time>2015-01-27T10:19:53Z</time>
      </trkpt>
      <trkpt lat="47.601292720" lon="0.455367342">
        <ele>78.000000</ele>
        <time>2015-01-27T10:20:10Z</time>
      </trkpt>
      <trkpt lat="47.601288194" lon="0.455377987">
        <ele>78.480000</ele>
        <time>2015-01-27T10:20:23Z</time>
      </trkpt>
      <trkpt lat="47.601272352" lon="0.455328282">
        <ele>78.480000</ele>
        <time>2015-01-27T10:20:37Z</time>
      </trkpt>
      <trkpt lat="47.601278638" lon="0.455331970">
        <ele>78.000000</ele>
        <time>2015-01-27T10:20:56Z</time>
      </trkpt>
      <trkpt lat="47.601296073" lon="0.455358457">
        <ele>78.000000</ele>
        <time>2015-01-27T10:21:24Z</time>
      </trkpt>
      <trkpt lat="47.601315519" lon="0.455363486">
        <ele>78.000000</ele>
        <time>2015-01-27T10:21:46Z</time>
      </trkpt>
      <trkpt lat="47.601278052" lon="0.455380753">
        <ele>78.000000</ele>
        <time>2015-01-27T10:22:09Z</time>
      </trkpt>
      <trkpt lat="47.601268329" lon="0.455457196">
        <ele>77.520000</ele>
        <time>2015-01-27T10:22:22Z</time>
      </trkpt>
      <trkpt lat="47.601295402" lon="0.455427608">
        <ele>77.520000</ele>
        <time>2015-01-27T10:22:34Z</time>
      </trkpt>
      <trkpt lat="47.601299090" lon="0.455386788">
        <ele>78.000000</ele>
        <time>2015-01-27T10:22:51Z</time>
      </trkpt>
      <trkpt lat="47.601317782" lon="0.455383770">
        <ele>78.000000</ele>
        <time>2015-01-27T10:23:09Z</time>
      </trkpt>
      <trkpt lat="47.601308813" lon="0.455368096">
        <ele>78.000000</ele>
        <time>2015-01-27T10:23:20Z</time>
      </trkpt>
      <trkpt lat="47.601286015" lon="0.455369353">
        <ele>78.000000</ele>
        <time>2015-01-27T10:23:36Z</time>
      </trkpt>
      <trkpt lat="47.601268580" lon="0.455421573">
        <ele>78.000000</ele>
        <time>2015-01-27T10:23:51Z</time>
      </trkpt>
      <trkpt lat="47.601263216" lon="0.455443701">
        <ele>77.520000</ele>
        <time>2015-01-27T10:24:02Z</time>
      </trkpt>
      <trkpt lat="47.601289283" lon="0.455399277">
        <ele>77.520000</ele>
        <time>2015-01-27T10:24:23Z</time>
      </trkpt>
      <trkpt lat="47.601287691" lon="0.455358876">
        <ele>78.000000</ele>
        <time>2015-01-27T10:24:38Z</time>
      </trkpt>
      <trkpt lat="47.601286937" lon="0.455333227">
        <ele>78.000000</ele>
        <time>2015-01-27T10:24:50Z</time>
      </trkpt>
      <trkpt lat="47.601234717" lon="0.455341358">
        <ele>78.000000</ele>
        <time>2015-01-27T10:25:01Z</time>
      </trkpt>
      <trkpt lat="47.601258270" lon="0.455363151">
        <ele>78.000000</ele>
        <time>2015-01-27T10:25:12Z</time>
      </trkpt>
      <trkpt lat="47.601262797" lon="0.455331970">
        <ele>78.000000</ele>
        <time>2015-01-27T10:25:16Z</time>
      </trkpt>
      <trkpt lat="47.601135392" lon="0.455261227">
        <ele>77.520000</ele>
        <time>2015-01-27T10:25:29Z</time>
      </trkpt>
      <trkpt lat="47.601114688" lon="0.455247900">
        <ele>77.520000</ele>
        <time>2015-01-27T10:25:31Z</time>
      </trkpt>
      <trkpt lat="47.601002958" lon="0.455198530">
        <ele>77.520000</ele>
        <time>2015-01-27T10:25:43Z</time>
      </trkpt>
      <trkpt lat="47.600811264" lon="0.455107503">
        <ele>77.520000</ele>
        <time>2015-01-27T10:26:00Z</time>
      </trkpt>
      <trkpt lat="47.600715710" lon="0.455075065">
        <ele>78.000000</ele>
        <time>2015-01-27T10:26:09Z</time>
      </trkpt>
      <trkpt lat="47.600618647" lon="0.455041537">
        <ele>78.480000</ele>
        <time>2015-01-27T10:26:26Z</time>
      </trkpt>
      <trkpt lat="47.600593502" lon="0.455045812">
        <ele>78.480000</ele>
        <time>2015-01-27T10:26:29Z</time>
      </trkpt>
      <trkpt lat="47.600556789" lon="0.455076490">
        <ele>78.970000</ele>
        <time>2015-01-27T10:26:33Z</time>
      </trkpt>
      <trkpt lat="47.600504989" lon="0.455277404">
        <ele>78.970000</ele>
        <time>2015-01-27T10:26:45Z</time>
      </trkpt>
      <trkpt lat="47.600498199" lon="0.455418387">
        <ele>78.970000</ele>
        <time>2015-01-27T10:26:54Z</time>
      </trkpt>
      <trkpt lat="47.600495266" lon="0.455508828">
        <ele>78.970000</ele>
        <time>2015-01-27T10:27:01Z</time>
      </trkpt>
      <trkpt lat="47.600475317" lon="0.455580996">
        <ele>78.970000</ele>
        <time>2015-01-27T10:27:08Z</time>
      </trkpt>
      <trkpt lat="47.600436844" lon="0.455874866">
        <ele>78.480000</ele>
        <time>2015-01-27T10:27:27Z</time>
      </trkpt>
      <trkpt lat="47.600371046" lon="0.456225397">
        <ele>78.480000</ele>
        <time>2015-01-27T10:27:45Z</time>
      </trkpt>
      <trkpt lat="47.600361742" lon="0.456392365">
        <ele>78.000000</ele>
        <time>2015-01-27T10:27:54Z</time>
      </trkpt>
      <trkpt lat="47.600330980" lon="0.456668967">
        <ele>77.520000</ele>
        <time>2015-01-27T10:28:09Z</time>
      </trkpt>
      <trkpt lat="47.600313965" lon="0.456762845">
        <ele>77.520000</ele>
        <time>2015-01-27T10:28:14Z</time>
      </trkpt>
      <trkpt lat="47.600261662" lon="0.457095942">
        <ele>77.040000</ele>
        <time>2015-01-27T10:28:31Z</time>
      </trkpt>
      <trkpt lat="47.600233331" lon="0.457381429">
        <ele>76.560000</ele>
        <time>2015-01-27T10:28:47Z</time>
      </trkpt>
      <trkpt lat="47.600185722" lon="0.457700696">
        <ele>76.560000</ele>
        <time>2015-01-27T10:29:04Z</time>
      </trkpt>
      <trkpt lat="47.600166947" lon="0.457789544">
        <ele>76.560000</ele>
        <time>2015-01-27T10:29:09Z</time>
      </trkpt>
      <trkpt lat="47.600103496" lon="0.458020298">
        <ele>76.560000</ele>
        <time>2015-01-27T10:29:21Z</time>
      </trkpt>
      <trkpt lat="47.600077847" lon="0.458352221">
        <ele>76.560000</ele>
        <time>2015-01-27T10:29:39Z</time>
      </trkpt>
      <trkpt lat="47.600071561" lon="0.458431430">
        <ele>77.040000</ele>
        <time>2015-01-27T10:29:43Z</time>
      </trkpt>
      <trkpt lat="47.600068040" lon="0.458573168">
        <ele>77.040000</ele>
        <time>2015-01-27T10:29:50Z</time>
      </trkpt>
      <trkpt lat="47.600052785" lon="0.458664196">
        <ele>77.040000</ele>
        <time>2015-01-27T10:29:55Z</time>
      </trkpt>
      <trkpt lat="47.600048594" lon="0.458714236">
        <ele>77.040000</ele>
        <time>2015-01-27T10:29:58Z</time>
      </trkpt>
      <trkpt lat="47.600018503" lon="0.459071808">
        <ele>77.520000</ele>
        <time>2015-01-27T10:30:17Z</time>
      </trkpt>
      <trkpt lat="47.600033171" lon="0.459253527">
        <ele>77.520000</ele>
        <time>2015-01-27T10:30:32Z</time>
      </trkpt>
      <trkpt lat="47.600017330" lon="0.459385207">
        <ele>77.520000</ele>
        <time>2015-01-27T10:30:45Z</time>
      </trkpt>
      <trkpt lat="47.599992016" lon="0.459708413">
        <ele>78.000000</ele>
        <time>2015-01-27T10:31:03Z</time>
      </trkpt>
      <trkpt lat="47.599982712" lon="0.459778318">
        <ele>78.000000</ele>
        <time>2015-01-27T10:31:15Z</time>
      </trkpt>
      <trkpt lat="47.599981539" lon="0.459951488">
        <ele>78.000000</ele>
        <time>2015-01-27T10:31:29Z</time>
      </trkpt>
      <trkpt lat="47.599968128" lon="0.459957942">
        <ele>78.000000</ele>
        <time>2015-01-27T10:31:32Z</time>
      </trkpt>
      <trkpt lat="47.599914651" lon="0.460183751">
        <ele>78.000000</ele>
        <time>2015-01-27T10:31:43Z</time>
      </trkpt>
      <trkpt lat="47.599878022" lon="0.460492792">
        <ele>77.520000</ele>
        <time>2015-01-27T10:32:00Z</time>
      </trkpt>
      <trkpt lat="47.599879531" lon="0.460540568">
        <ele>77.520000</ele>
        <time>2015-01-27T10:32:14Z</time>
      </trkpt>
      <trkpt lat="47.599846339" lon="0.460547609">
        <ele>77.520000</ele>
        <time>2015-01-27T10:32:20Z</time>
      </trkpt>
      <trkpt lat="47.599817002" lon="0.460662609">
        <ele>77.040000</ele>
        <time>2015-01-27T10:32:25Z</time>
      </trkpt>
      <trkpt lat="47.599789677" lon="0.461015403">
        <ele>75.600000</ele>
        <time>2015-01-27T10:32:40Z</time>
      </trkpt>
      <trkpt lat="47.599801663" lon="0.461144317">
        <ele>75.600000</ele>
        <time>2015-01-27T10:32:46Z</time>
      </trkpt>
      <trkpt lat="47.599795712" lon="0.461470792">
        <ele>74.640000</ele>
        <time>2015-01-27T10:33:02Z</time>
      </trkpt>
      <trkpt lat="47.599772662" lon="0.461752005">
        <ele>75.120000</ele>
        <time>2015-01-27T10:33:16Z</time>
      </trkpt>
      <trkpt lat="47.599769393" lon="0.461789221">
        <ele>75.120000</ele>
        <time>2015-01-27T10:33:18Z</time>
      </trkpt>
      <trkpt lat="47.599742319" lon="0.461874884">
        <ele>75.120000</ele>
        <time>2015-01-27T10:33:22Z</time>
      </trkpt>
      <trkpt lat="47.599572418" lon="0.462150313">
        <ele>76.080000</ele>
        <time>2015-01-27T10:33:38Z</time>
      </trkpt>
      <trkpt lat="47.599480050" lon="0.462163137">
        <ele>76.080000</ele>
        <time>2015-01-27T10:33:46Z</time>
      </trkpt>
      <trkpt lat="47.599295061" lon="0.462426832">
        <ele>75.600000</ele>
        <time>2015-01-27T10:34:04Z</time>
      </trkpt>
      <trkpt lat="47.599220462" lon="0.462533785">
        <ele>75.600000</ele>
        <time>2015-01-27T10:34:13Z</time>
      </trkpt>
      <trkpt lat="47.599081239" lon="0.462738639">
        <ele>75.120000</ele>
        <time>2015-01-27T10:34:30Z</time>
      </trkpt>
      <trkpt lat="47.599017117" lon="0.462854812">
        <ele>75.600000</ele>
        <time>2015-01-27T10:34:50Z</time>
      </trkpt>
      <trkpt lat="47.598955175" lon="0.462902253">
        <ele>75.600000</ele>
        <time>2015-01-27T10:35:04Z</time>
      </trkpt>
      <trkpt lat="47.598952828" lon="0.462913821">
        <ele>75.600000</ele>
        <time>2015-01-27T10:35:06Z</time>
      </trkpt>
      <trkpt lat="47.598898681" lon="0.463428050">
        <ele>75.120000</ele>
        <time>2015-01-27T10:35:28Z</time>
      </trkpt>
      <trkpt lat="47.598848473" lon="0.463544140">
        <ele>75.120000</ele>
        <time>2015-01-27T10:35:35Z</time>
      </trkpt>
      <trkpt lat="47.598797008" lon="0.464000702">
        <ele>75.120000</ele>
        <time>2015-01-27T10:35:55Z</time>
      </trkpt>
      <trkpt lat="47.598727858" lon="0.464195162">
        <ele>75.120000</ele>
        <time>2015-01-27T10:36:06Z</time>
      </trkpt>
      <trkpt lat="47.598629538" lon="0.464212094">
        <ele>75.600000</ele>
        <time>2015-01-27T10:36:13Z</time>
      </trkpt>
      <trkpt lat="47.598419236" lon="0.464202957">
        <ele>77.040000</ele>
        <time>2015-01-27T10:36:28Z</time>
      </trkpt>
      <trkpt lat="47.598195691" lon="0.464245956">
        <ele>78.480000</ele>
        <time>2015-01-27T10:36:44Z</time>
      </trkpt>
      <trkpt lat="47.598112710" lon="0.464249393">
        <ele>78.970000</ele>
        <time>2015-01-27T10:36:50Z</time>
      </trkpt>
      <trkpt lat="47.598078847" lon="0.464258865">
        <ele>78.970000</ele>
        <time>2015-01-27T10:36:53Z</time>
      </trkpt>
      <trkpt lat="47.597891344" lon="0.464334637">
        <ele>79.930000</ele>
        <time>2015-01-27T10:37:08Z</time>
      </trkpt>
      <trkpt lat="47.597707026" lon="0.464345617">
        <ele>81.370000</ele>
        <time>2015-01-27T10:37:23Z</time>
      </trkpt>
      <trkpt lat="47.597665871" lon="0.464349473">
        <ele>81.850000</ele>
        <time>2015-01-27T10:37:27Z</time>
      </trkpt>
      <trkpt lat="47.597460179" lon="0.464400016">
        <ele>83.290000</ele>
        <time>2015-01-27T10:37:43Z</time>
      </trkpt>
      <trkpt lat="47.597272089" lon="0.464457599">
        <ele>84.250000</ele>
        <time>2015-01-27T10:37:58Z</time>
      </trkpt>
      <trkpt lat="47.597082993" lon="0.464520715">
        <ele>85.210000</ele>
        <time>2015-01-27T10:38:14Z</time>
      </trkpt>
      <trkpt lat="47.596928934" lon="0.464582741">
        <ele>86.180000</ele>
        <time>2015-01-27T10:38:26Z</time>
      </trkpt>
      <trkpt lat="47.596768420" lon="0.464641917">
        <ele>87.140000</ele>
        <time>2015-01-27T10:38:41Z</time>
      </trkpt>
      <trkpt lat="47.596589634" lon="0.464795893">
        <ele>88.580000</ele>
        <time>2015-01-27T10:38:57Z</time>
      </trkpt>
      <trkpt lat="47.596515119" lon="0.464825900">
        <ele>89.060000</ele>
        <time>2015-01-27T10:39:03Z</time>
      </trkpt>
      <trkpt lat="47.596330717" lon="0.465008961">
        <ele>90.020000</ele>
        <time>2015-01-27T10:39:22Z</time>
      </trkpt>
      <trkpt lat="47.596216137" lon="0.465183221">
        <ele>91.460000</ele>
        <time>2015-01-27T10:39:38Z</time>
      </trkpt>
      <trkpt lat="47.596127037" lon="0.465243738">
        <ele>92.420000</ele>
        <time>2015-01-27T10:39:51Z</time>
      </trkpt>
      <trkpt lat="47.596100131" lon="0.465250947">
        <ele>91.460000</ele>
        <time>2015-01-27T10:40:01Z</time>
      </trkpt>
      <trkpt lat="47.596086971" lon="0.465494776">
        <ele>93.390000</ele>
        <time>2015-01-27T10:40:16Z</time>
      </trkpt>
      <trkpt lat="47.596000722" lon="0.465566274">
        <ele>93.870000</ele>
        <time>2015-01-27T10:40:30Z</time>
      </trkpt>
      <trkpt lat="47.596044894" lon="0.465703402">
        <ele>94.350000</ele>
        <time>2015-01-27T10:40:48Z</time>
      </trkpt>
      <trkpt lat="47.596021928" lon="0.465918146">
        <ele>95.790000</ele>
        <time>2015-01-27T10:41:00Z</time>
      </trkpt>
      <trkpt lat="47.596035004" lon="0.466215787">
        <ele>97.710000</ele>
        <time>2015-01-27T10:41:16Z</time>
      </trkpt>
      <trkpt lat="47.596043972" lon="0.466457438">
        <ele>100.110000</ele>
        <time>2015-01-27T10:41:31Z</time>
      </trkpt>
      <trkpt lat="47.596042547" lon="0.466489624">
        <ele>100.600000</ele>
        <time>2015-01-27T10:41:33Z</time>
      </trkpt>
      <trkpt lat="47.596014217" lon="0.466584591">
        <ele>101.560000</ele>
        <time>2015-01-27T10:41:39Z</time>
      </trkpt>
      <trkpt lat="47.595824031" lon="0.466712248">
        <ele>103.000000</ele>
        <time>2015-01-27T10:41:56Z</time>
      </trkpt>
      <trkpt lat="47.595680365" lon="0.466736974">
        <ele>103.960000</ele>
        <time>2015-01-27T10:42:11Z</time>
      </trkpt>
      <trkpt lat="47.595574334" lon="0.466789613">
        <ele>104.920000</ele>
        <time>2015-01-27T10:42:30Z</time>
      </trkpt>
      <trkpt lat="47.595556397" lon="0.466804113">
        <ele>105.400000</ele>
        <time>2015-01-27T10:42:32Z</time>
      </trkpt>
      <trkpt lat="47.595478864" lon="0.466850298">
        <ele>105.880000</ele>
        <time>2015-01-27T10:42:39Z</time>
      </trkpt>
      <trkpt lat="47.595417341" lon="0.466874186">
        <ele>106.840000</ele>
        <time>2015-01-27T10:42:44Z</time>
      </trkpt>
      <trkpt lat="47.595323212" lon="0.466922801">
        <ele>107.320000</ele>
        <time>2015-01-27T10:42:52Z</time>
      </trkpt>
      <trkpt lat="47.595306113" lon="0.466942331">
        <ele>107.320000</ele>
        <time>2015-01-27T10:42:54Z</time>
      </trkpt>
      <trkpt lat="47.595113330" lon="0.467028748">
        <ele>108.770000</ele>
        <time>2015-01-27T10:43:10Z</time>
      </trkpt>
      <trkpt lat="47.594921887" lon="0.467087170">
        <ele>109.250000</ele>
        <time>2015-01-27T10:43:25Z</time>
      </trkpt>
      <trkpt lat="47.594724158" lon="0.467114579">
        <ele>109.730000</ele>
        <time>2015-01-27T10:43:40Z</time>
      </trkpt>
      <trkpt lat="47.594703035" lon="0.467118686">
        <ele>109.730000</ele>
        <time>2015-01-27T10:43:42Z</time>
      </trkpt>
      <trkpt lat="47.594623743" lon="0.467138048">
        <ele>110.210000</ele>
        <time>2015-01-27T10:43:49Z</time>
      </trkpt>
      <trkpt lat="47.594422493" lon="0.467166714">
        <ele>110.690000</ele>
        <time>2015-01-27T10:44:06Z</time>
      </trkpt>
      <trkpt lat="47.594395336" lon="0.467167553">
        <ele>110.690000</ele>
        <time>2015-01-27T10:44:08Z</time>
      </trkpt>
      <trkpt lat="47.594226440" lon="0.467197979">
        <ele>111.170000</ele>
        <time>2015-01-27T10:44:23Z</time>
      </trkpt>
      <trkpt lat="47.594061065" lon="0.467237793">
        <ele>111.170000</ele>
        <time>2015-01-27T10:44:39Z</time>
      </trkpt>
      <trkpt lat="47.594010523" lon="0.467261681">
        <ele>111.170000</ele>
        <time>2015-01-27T10:44:54Z</time>
      </trkpt>
      <trkpt lat="47.593982276" lon="0.467257993">
        <ele>111.170000</ele>
        <time>2015-01-27T10:45:06Z</time>
      </trkpt>
      <trkpt lat="47.594049415" lon="0.467563597">
        <ele>111.650000</ele>
        <time>2015-01-27T10:45:22Z</time>
      </trkpt>
      <trkpt lat="47.594129629" lon="0.467867777">
        <ele>112.130000</ele>
        <time>2015-01-27T10:45:38Z</time>
      </trkpt>
      <trkpt lat="47.594200708" lon="0.468175896">
        <ele>112.610000</ele>
        <time>2015-01-27T10:45:54Z</time>
      </trkpt>
      <trkpt lat="47.594272373" lon="0.468507567">
        <ele>113.570000</ele>
        <time>2015-01-27T10:46:11Z</time>
      </trkpt>
      <trkpt lat="47.594350744" lon="0.468818452">
        <ele>113.570000</ele>
        <time>2015-01-27T10:46:27Z</time>
      </trkpt>
      <trkpt lat="47.594418386" lon="0.469114585">
        <ele>114.050000</ele>
        <time>2015-01-27T10:46:43Z</time>
      </trkpt>
      <trkpt lat="47.594471527" lon="0.469403425">
        <ele>113.570000</ele>
        <time>2015-01-27T10:46:58Z</time>
      </trkpt>
      <trkpt lat="47.594544869" lon="0.469722440">
        <ele>113.570000</ele>
        <time>2015-01-27T10:47:15Z</time>
      </trkpt>
      <trkpt lat="47.594621563" lon="0.470044222">
        <ele>113.570000</ele>
        <time>2015-01-27T10:47:33Z</time>
      </trkpt>
      <trkpt lat="47.594704209" lon="0.470301043">
        <ele>113.570000</ele>
        <time>2015-01-27T10:47:50Z</time>
      </trkpt>
      <trkpt lat="47.594738994" lon="0.470372709">
        <ele>113.570000</ele>
        <time>2015-01-27T10:47:55Z</time>
      </trkpt>
      <trkpt lat="47.594869081" lon="0.470579490">
        <ele>113.570000</ele>
        <time>2015-01-27T10:48:13Z</time>
      </trkpt>
      <trkpt lat="47.595049040" lon="0.470709745">
        <ele>113.090000</ele>
        <time>2015-01-27T10:48:30Z</time>
      </trkpt>
      <trkpt lat="47.595206033" lon="0.470843520">
        <ele>112.610000</ele>
        <time>2015-01-27T10:48:43Z</time>
      </trkpt>
      <trkpt lat="47.595428992" lon="0.470998418">
        <ele>111.650000</ele>
        <time>2015-01-27T10:49:03Z</time>
      </trkpt>
      <trkpt lat="47.595577352" lon="0.471125906">
        <ele>111.650000</ele>
        <time>2015-01-27T10:49:17Z</time>
      </trkpt>
      <trkpt lat="47.595797880" lon="0.471272841">
        <ele>110.690000</ele>
        <time>2015-01-27T10:49:36Z</time>
      </trkpt>
      <trkpt lat="47.595874658" lon="0.471350793">
        <ele>110.690000</ele>
        <time>2015-01-27T10:49:43Z</time>
      </trkpt>
      <trkpt lat="47.596104406" lon="0.471515916">
        <ele>109.730000</ele>
        <time>2015-01-27T10:50:04Z</time>
      </trkpt>
      <trkpt lat="47.596313786" lon="0.471673412">
        <ele>109.250000</ele>
        <time>2015-01-27T10:50:23Z</time>
      </trkpt>
      <trkpt lat="47.596355779" lon="0.471719094">
        <ele>109.730000</ele>
        <time>2015-01-27T10:50:27Z</time>
      </trkpt>
      <trkpt lat="47.596583012" lon="0.471888073">
        <ele>108.770000</ele>
        <time>2015-01-27T10:50:47Z</time>
      </trkpt>
      <trkpt lat="47.596736988" lon="0.472034840">
        <ele>108.290000</ele>
        <time>2015-01-27T10:51:03Z</time>
      </trkpt>
      <trkpt lat="47.596894987" lon="0.472250003">
        <ele>108.290000</ele>
        <time>2015-01-27T10:51:20Z</time>
      </trkpt>
      <trkpt lat="47.597034378" lon="0.472520990">
        <ele>107.320000</ele>
        <time>2015-01-27T10:51:38Z</time>
      </trkpt>
      <trkpt lat="47.597128507" lon="0.472754259">
        <ele>107.320000</ele>
        <time>2015-01-27T10:51:53Z</time>
      </trkpt>
      <trkpt lat="47.597240657" lon="0.473056426">
        <ele>106.360000</ele>
        <time>2015-01-27T10:52:12Z</time>
      </trkpt>
      <trkpt lat="47.597370744" lon="0.473352056">
        <ele>105.880000</ele>
        <time>2015-01-27T10:52:31Z</time>
      </trkpt>
      <trkpt lat="47.597497394" lon="0.473656068">
        <ele>105.400000</ele>
        <time>2015-01-27T10:52:51Z</time>
      </trkpt>
      <trkpt lat="47.597625554" lon="0.473964773">
        <ele>104.440000</ele>
        <time>2015-01-27T10:53:11Z</time>
      </trkpt>
      <trkpt lat="47.597735440" lon="0.474246657">
        <ele>103.960000</ele>
        <time>2015-01-27T10:53:28Z</time>
      </trkpt>
      <trkpt lat="47.597803166" lon="0.474423263">
        <ele>103.000000</ele>
        <time>2015-01-27T10:53:39Z</time>
      </trkpt>
      <trkpt lat="47.597809117" lon="0.474451426">
        <ele>103.000000</ele>
        <time>2015-01-27T10:53:41Z</time>
      </trkpt>
      <trkpt lat="47.597900815" lon="0.474668937">
        <ele>102.520000</ele>
        <time>2015-01-27T10:53:58Z</time>
      </trkpt>
      <trkpt lat="47.597936606" lon="0.474751079">
        <ele>102.520000</ele>
        <time>2015-01-27T10:54:04Z</time>
      </trkpt>
      <trkpt lat="47.598020677" lon="0.474977056">
        <ele>101.560000</ele>
        <time>2015-01-27T10:54:19Z</time>
      </trkpt>
      <trkpt lat="47.598119164" lon="0.475209989">
        <ele>101.080000</ele>
        <time>2015-01-27T10:54:34Z</time>
      </trkpt>
      <trkpt lat="47.598127294" lon="0.475225076">
        <ele>101.080000</ele>
        <time>2015-01-27T10:54:35Z</time>
      </trkpt>
      <trkpt lat="47.598231565" lon="0.475473348">
        <ele>99.630000</ele>
        <time>2015-01-27T10:54:51Z</time>
      </trkpt>
      <trkpt lat="47.598362071" lon="0.475807367">
        <ele>98.670000</ele>
        <time>2015-01-27T10:55:13Z</time>
      </trkpt>
      <trkpt lat="47.598478664" lon="0.476097884">
        <ele>97.710000</ele>
        <time>2015-01-27T10:55:31Z</time>
      </trkpt>
      <trkpt lat="47.598589137" lon="0.476353113">
        <ele>96.270000</ele>
        <time>2015-01-27T10:55:48Z</time>
      </trkpt>
      <trkpt lat="47.598690474" lon="0.476615299">
        <ele>95.310000</ele>
        <time>2015-01-27T10:56:05Z</time>
      </trkpt>
      <trkpt lat="47.598820059" lon="0.476910761">
        <ele>94.350000</ele>
        <time>2015-01-27T10:56:24Z</time>
      </trkpt>
      <trkpt lat="47.598933717" lon="0.477168337">
        <ele>93.390000</ele>
        <time>2015-01-27T10:56:41Z</time>
      </trkpt>
      <trkpt lat="47.598952493" lon="0.477219215">
        <ele>93.390000</ele>
        <time>2015-01-27T10:56:44Z</time>
      </trkpt>
      <trkpt lat="47.599005634" lon="0.477332035">
        <ele>92.420000</ele>
        <time>2015-01-27T10:56:52Z</time>
      </trkpt>
      <trkpt lat="47.599156341" lon="0.477587767">
        <ele>91.460000</ele>
        <time>2015-01-27T10:57:12Z</time>
      </trkpt>
      <trkpt lat="47.599239824" lon="0.477738222">
        <ele>90.500000</ele>
        <time>2015-01-27T10:57:24Z</time>
      </trkpt>
      <trkpt lat="47.599374019" lon="0.477947770">
        <ele>89.540000</ele>
        <time>2015-01-27T10:57:41Z</time>
      </trkpt>
      <trkpt lat="47.599506872" lon="0.478133764">
        <ele>88.580000</ele>
        <time>2015-01-27T10:57:57Z</time>
      </trkpt>
      <trkpt lat="47.599667553" lon="0.478348425">
        <ele>86.660000</ele>
        <time>2015-01-27T10:58:16Z</time>
      </trkpt>
      <trkpt lat="47.599825384" lon="0.478556128">
        <ele>85.690000</ele>
        <time>2015-01-27T10:58:35Z</time>
      </trkpt>
      <trkpt lat="47.600019593" lon="0.478823595">
        <ele>84.250000</ele>
        <time>2015-01-27T10:58:57Z</time>
      </trkpt>
      <trkpt lat="47.600192511" lon="0.479066335">
        <ele>82.810000</ele>
        <time>2015-01-27T10:59:17Z</time>
      </trkpt>
      <trkpt lat="47.600345565" lon="0.479273116">
        <ele>81.370000</ele>
        <time>2015-01-27T10:59:36Z</time>
      </trkpt>
      <trkpt lat="47.600500211" lon="0.479481323">
        <ele>79.930000</ele>
        <time>2015-01-27T10:59:55Z</time>
      </trkpt>
      <trkpt lat="47.600656450" lon="0.479683159">
        <ele>78.970000</ele>
        <time>2015-01-27T11:00:12Z</time>
      </trkpt>
      <trkpt lat="47.600849736" lon="0.479947189">
        <ele>76.560000</ele>
        <time>2015-01-27T11:00:33Z</time>
      </trkpt>
      <trkpt lat="47.601003544" lon="0.480233766">
        <ele>75.120000</ele>
        <time>2015-01-27T11:00:52Z</time>
      </trkpt>
      <trkpt lat="47.601145450" lon="0.480509279">
        <ele>74.160000</ele>
        <time>2015-01-27T11:01:10Z</time>
      </trkpt>
      <trkpt lat="47.601161962" lon="0.480534006">
        <ele>74.160000</ele>
        <time>2015-01-27T11:01:12Z</time>
      </trkpt>
      <trkpt lat="47.601215523" lon="0.480645820">
        <ele>74.160000</ele>
        <time>2015-01-27T11:01:20Z</time>
      </trkpt>
      <trkpt lat="47.601361284" lon="0.480865091">
        <ele>73.680000</ele>
        <time>2015-01-27T11:01:39Z</time>
      </trkpt>
      <trkpt lat="47.601512661" lon="0.481091151">
        <ele>73.680000</ele>
        <time>2015-01-27T11:01:56Z</time>
      </trkpt>
      <trkpt lat="47.601521630" lon="0.481104311">
        <ele>73.200000</ele>
        <time>2015-01-27T11:01:57Z</time>
      </trkpt>
      <trkpt lat="47.601532526" lon="0.481138509">
        <ele>73.680000</ele>
        <time>2015-01-27T11:02:00Z</time>
      </trkpt>
      <trkpt lat="47.601629421" lon="0.481373873">
        <ele>72.720000</ele>
        <time>2015-01-27T11:02:17Z</time>
      </trkpt>
      <trkpt lat="47.601706535" lon="0.481611583">
        <ele>72.240000</ele>
        <time>2015-01-27T11:02:31Z</time>
      </trkpt>
      <trkpt lat="47.601777362" lon="0.481895730">
        <ele>71.760000</ele>
        <time>2015-01-27T11:02:47Z</time>
      </trkpt>
      <trkpt lat="47.601816757" lon="0.482171159">
        <ele>71.270000</ele>
        <time>2015-01-27T11:03:02Z</time>
      </trkpt>
      <trkpt lat="47.601828240" lon="0.482271072">
        <ele>70.790000</ele>
        <time>2015-01-27T11:03:08Z</time>
      </trkpt>
      <trkpt lat="47.601877023" lon="0.482581453">
        <ele>69.830000</ele>
        <time>2015-01-27T11:03:25Z</time>
      </trkpt>
      <trkpt lat="47.601889260" lon="0.482868031">
        <ele>68.870000</ele>
        <time>2015-01-27T11:03:41Z</time>
      </trkpt>
      <trkpt lat="47.601910215" lon="0.483151423">
        <ele>68.390000</ele>
        <time>2015-01-27T11:03:57Z</time>
      </trkpt>
      <trkpt lat="47.601940725" lon="0.483447975">
        <ele>67.430000</ele>
        <time>2015-01-27T11:04:13Z</time>
      </trkpt>
      <trkpt lat="47.601966122" lon="0.483583594">
        <ele>67.430000</ele>
        <time>2015-01-27T11:04:20Z</time>
      </trkpt>
      <trkpt lat="47.602056144" lon="0.483789872">
        <ele>67.430000</ele>
        <time>2015-01-27T11:04:37Z</time>
      </trkpt>
      <trkpt lat="47.602191176" lon="0.483865812">
        <ele>67.430000</ele>
        <time>2015-01-27T11:04:50Z</time>
      </trkpt>
      <trkpt lat="47.602232751" lon="0.483868159">
        <ele>66.950000</ele>
        <time>2015-01-27T11:04:54Z</time>
      </trkpt>
      <trkpt lat="47.602418661" lon="0.483921971">
        <ele>66.950000</ele>
        <time>2015-01-27T11:05:11Z</time>
      </trkpt>
      <trkpt lat="47.602538355" lon="0.483989026">
        <ele>66.950000</ele>
        <time>2015-01-27T11:05:23Z</time>
      </trkpt>
      <trkpt lat="47.602480436" lon="0.484136716">
        <ele>66.950000</ele>
        <time>2015-01-27T11:05:36Z</time>
      </trkpt>
      <trkpt lat="47.602499546" lon="0.484107966">
        <ele>66.950000</ele>
        <time>2015-01-27T11:05:48Z</time>
      </trkpt>
      <trkpt lat="47.602510946" lon="0.484083071">
        <ele>66.950000</ele>
        <time>2015-01-27T11:05:59Z</time>
      </trkpt>
      <trkpt lat="47.602519328" lon="0.484100003">
        <ele>66.950000</ele>
        <time>2015-01-27T11:06:15Z</time>
      </trkpt>
      <trkpt lat="47.602546066" lon="0.484110145">
        <ele>66.950000</ele>
        <time>2015-01-27T11:06:55Z</time>
      </trkpt>
      <trkpt lat="47.602515556" lon="0.484116934">
        <ele>65.510000</ele>
        <time>2015-01-27T11:07:13Z</time>
      </trkpt>
      <trkpt lat="47.602538187" lon="0.484100925">
        <ele>68.870000</ele>
        <time>2015-01-27T11:07:34Z</time>
      </trkpt>
      <trkpt lat="47.602538019" lon="0.484097824">
        <ele>68.870000</ele>
        <time>2015-01-27T11:07:35Z</time>
      </trkpt>
      <trkpt lat="47.602497870" lon="0.484084748">
        <ele>67.430000</ele>
        <time>2015-01-27T11:08:01Z</time>
      </trkpt>
    </trkseg>
  </trk>
</gpx>
